<?xml version="1.0" encoding="UTF-8" standalone="no" ?>
<gpx xmlns="http://www.topografix.com/GPX/1/1" xmlns:xsi="http://www.w3.org/2001/XMLSchema-instance" xsi:schemaLocation="http://www.topografix.com/GPX/1/1 http://www.topografix.com/GPX/1/1/gpx.xsd" version="1.1" creator="VisuGPX - https://www.visugpx.com">
  <metadata>
    <name>muille guivry muille</name>
    <desc><![CDATA[28 km avec pas mal de bois ]]></desc>
  </metadata>
  <wpt lat="49.72428" lon="3.06653">
    <ele>64.8</ele>
    <name><![CDATA[WPT_0000253]]></name>
    <desc><![CDATA[]]></desc>
    <type><![CDATA[Point de départ]]></type>
  </wpt>
  <wpt lat="49.72451" lon="3.06659">
    <ele>65.22</ele>
    <name><![CDATA[WPT_0000254]]></name>
    <desc><![CDATA[<br /><h3>Nom: Segment 1</h3><br /><p>Temps de départ: 12/15/2013 09:12</p><p>Temps d'arrivée: 12/15/2013 11:51</p><p>Distance: 28,5 km (02:38)</p><p>Temps déplacement: 01:58</p><p>Vitesse moyenne: 10,8 km/h</p><p>Vitesse moyenne: 14,3 km/h</p><p>Vitess Max.: 50,8 km/h</p><p>Altitude minimale: 62 m</p><p>Altitude maximale: 180 m</p><p>Vitesse d'élévation: 261,5 m/h</p><p>Vitesse de descente: -445,4 m/h</p><p>Gain Altitude: 280 m</p><p>Perte Altitude: -281 m</p><p>Temps d'élévation: 01:04</p><p>Temps de descente: 00:37</p>]]></desc>
    <type><![CDATA[Point d'arrivée]]></type>
  </wpt>
  <trk>
    <name><![CDATA[2013-12-15 09:12]]></name>
    <desc><![CDATA[<h1>OruxMaps</h1><br /><hr align="center" width="480" style="height: 2px; width: 517px"/><h2>Nom: 2013-12-15 09:12</h2><br /><p>Temps de départ: 12/15/2013 09:12</p><p>Temps d'arrivée: 12/15/2013 11:51</p><p>Distance: 28,5 km (02:38)</p><p>Temps déplacement: 01:58</p><p>Vitesse moyenne: 10,8 km/h</p><p>Vitesse moyenne: 14,3 km/h</p><p>Vitess Max.: 50,8 km/h</p><p>Altitude minimale: 62 m</p><p>Altitude maximale: 180 m</p><p>Vitesse d'élévation: 261,5 m/h</p><p>Vitesse de descente: -445,4 m/h</p><p>Gain Altitude: 280 m</p><p>Perte Altitude: -281 m</p><p>Temps d'élévation: 01:04</p><p>Temps de descente: 00:37</p><hr align="center" width="480" style="height: 2px; width: 517px"/>]]></desc>
    <trkseg>
      <trkpt lat="49.72428" lon="3.06653">
        <ele>64.8</ele>
        <time>2013-12-15T08:12:26Z</time>
      </trkpt>
      <trkpt lat="49.72408" lon="3.06661">
        <ele>64.87</ele>
        <time>2013-12-15T08:12:35Z</time>
      </trkpt>
      <trkpt lat="49.7237" lon="3.06657">
        <ele>64.82</ele>
        <time>2013-12-15T08:12:44Z</time>
      </trkpt>
      <trkpt lat="49.72351" lon="3.06656">
        <ele>64.84</ele>
        <time>2013-12-15T08:12:49Z</time>
      </trkpt>
      <trkpt lat="49.72337" lon="3.06693">
        <ele>65.01</ele>
        <time>2013-12-15T08:12:57Z</time>
      </trkpt>
      <trkpt lat="49.72337" lon="3.06727">
        <ele>65.03</ele>
        <time>2013-12-15T08:13:02Z</time>
      </trkpt>
      <trkpt lat="49.7232" lon="3.06764">
        <ele>65.12</ele>
        <time>2013-12-15T08:13:11Z</time>
      </trkpt>
      <trkpt lat="49.72288" lon="3.06769">
        <ele>64.98</ele>
        <time>2013-12-15T08:13:20Z</time>
      </trkpt>
      <trkpt lat="49.72268" lon="3.06773">
        <ele>64.85</ele>
        <time>2013-12-15T08:13:25Z</time>
      </trkpt>
      <trkpt lat="49.72253" lon="3.06788">
        <ele>64.57</ele>
        <time>2013-12-15T08:13:30Z</time>
      </trkpt>
      <trkpt lat="49.72241" lon="3.06831">
        <ele>63.69</ele>
        <time>2013-12-15T08:13:38Z</time>
      </trkpt>
      <trkpt lat="49.72232" lon="3.06872">
        <ele>63.19</ele>
        <time>2013-12-15T08:13:47Z</time>
      </trkpt>
      <trkpt lat="49.72224" lon="3.06916">
        <ele>63</ele>
        <time>2013-12-15T08:13:56Z</time>
      </trkpt>
      <trkpt lat="49.72218" lon="3.06943">
        <ele>63.07</ele>
        <time>2013-12-15T08:14:01Z</time>
      </trkpt>
      <trkpt lat="49.722" lon="3.06992">
        <ele>62.82</ele>
        <time>2013-12-15T08:14:11Z</time>
      </trkpt>
      <trkpt lat="49.72184" lon="3.07033">
        <ele>62.73</ele>
        <time>2013-12-15T08:14:20Z</time>
      </trkpt>
      <trkpt lat="49.72168" lon="3.07073">
        <ele>62.89</ele>
        <time>2013-12-15T08:14:29Z</time>
      </trkpt>
      <trkpt lat="49.72149" lon="3.07118">
        <ele>63.45</ele>
        <time>2013-12-15T08:14:39Z</time>
      </trkpt>
      <trkpt lat="49.72135" lon="3.07156">
        <ele>63.59</ele>
        <time>2013-12-15T08:14:48Z</time>
      </trkpt>
      <trkpt lat="49.72115" lon="3.072">
        <ele>63.78</ele>
        <time>2013-12-15T08:14:58Z</time>
      </trkpt>
      <trkpt lat="49.721" lon="3.07246">
        <ele>64.14</ele>
        <time>2013-12-15T08:15:08Z</time>
      </trkpt>
      <trkpt lat="49.72082" lon="3.07292">
        <ele>64.02</ele>
        <time>2013-12-15T08:15:18Z</time>
      </trkpt>
      <trkpt lat="49.72066" lon="3.07331">
        <ele>64.21</ele>
        <time>2013-12-15T08:15:27Z</time>
      </trkpt>
      <trkpt lat="49.72051" lon="3.07375">
        <ele>64.69</ele>
        <time>2013-12-15T08:15:37Z</time>
      </trkpt>
      <trkpt lat="49.72038" lon="3.07413">
        <ele>64.98</ele>
        <time>2013-12-15T08:15:46Z</time>
      </trkpt>
      <trkpt lat="49.72027" lon="3.0745">
        <ele>65.4</ele>
        <time>2013-12-15T08:15:54Z</time>
      </trkpt>
      <trkpt lat="49.7201" lon="3.07487">
        <ele>65.84</ele>
        <time>2013-12-15T08:16:03Z</time>
      </trkpt>
      <trkpt lat="49.72" lon="3.07509">
        <ele>66</ele>
        <time>2013-12-15T08:16:08Z</time>
      </trkpt>
      <trkpt lat="49.71982" lon="3.07555">
        <ele>65.64</ele>
        <time>2013-12-15T08:16:17Z</time>
      </trkpt>
      <trkpt lat="49.71972" lon="3.07582">
        <ele>65.34</ele>
        <time>2013-12-15T08:16:22Z</time>
      </trkpt>
      <trkpt lat="49.71963" lon="3.0761">
        <ele>64.94</ele>
        <time>2013-12-15T08:16:27Z</time>
      </trkpt>
      <trkpt lat="49.71954" lon="3.0764">
        <ele>64.59</ele>
        <time>2013-12-15T08:16:32Z</time>
      </trkpt>
      <trkpt lat="49.71945" lon="3.07671">
        <ele>64.31</ele>
        <time>2013-12-15T08:16:37Z</time>
      </trkpt>
      <trkpt lat="49.71934" lon="3.0771">
        <ele>63.99</ele>
        <time>2013-12-15T08:16:45Z</time>
      </trkpt>
      <trkpt lat="49.71922" lon="3.07749">
        <ele>63.94</ele>
        <time>2013-12-15T08:16:54Z</time>
      </trkpt>
      <trkpt lat="49.71908" lon="3.0778">
        <ele>64.24</ele>
        <time>2013-12-15T08:17:03Z</time>
      </trkpt>
      <trkpt lat="49.71889" lon="3.07819">
        <ele>64.49</ele>
        <time>2013-12-15T08:17:13Z</time>
      </trkpt>
      <trkpt lat="49.71877" lon="3.07841">
        <ele>64.57</ele>
        <time>2013-12-15T08:17:18Z</time>
      </trkpt>
      <trkpt lat="49.71865" lon="3.07864">
        <ele>64.61</ele>
        <time>2013-12-15T08:17:23Z</time>
      </trkpt>
      <trkpt lat="49.71845" lon="3.07908">
        <ele>64.91</ele>
        <time>2013-12-15T08:17:32Z</time>
      </trkpt>
      <trkpt lat="49.71826" lon="3.07948">
        <ele>64.91</ele>
        <time>2013-12-15T08:17:40Z</time>
      </trkpt>
      <trkpt lat="49.71813" lon="3.07971">
        <ele>64.76</ele>
        <time>2013-12-15T08:17:45Z</time>
      </trkpt>
      <trkpt lat="49.71801" lon="3.07996">
        <ele>64.61</ele>
        <time>2013-12-15T08:17:50Z</time>
      </trkpt>
      <trkpt lat="49.71788" lon="3.08021">
        <ele>64.47</ele>
        <time>2013-12-15T08:17:55Z</time>
      </trkpt>
      <trkpt lat="49.71775" lon="3.08045">
        <ele>64.52</ele>
        <time>2013-12-15T08:18:00Z</time>
      </trkpt>
      <trkpt lat="49.71763" lon="3.0807">
        <ele>64.74</ele>
        <time>2013-12-15T08:18:05Z</time>
      </trkpt>
      <trkpt lat="49.71741" lon="3.08114">
        <ele>65.76</ele>
        <time>2013-12-15T08:18:14Z</time>
      </trkpt>
      <trkpt lat="49.71724" lon="3.0816">
        <ele>66.57</ele>
        <time>2013-12-15T08:18:24Z</time>
      </trkpt>
      <trkpt lat="49.71708" lon="3.08198">
        <ele>66.31</ele>
        <time>2013-12-15T08:18:33Z</time>
      </trkpt>
      <trkpt lat="49.71684" lon="3.08235">
        <ele>66.04</ele>
        <time>2013-12-15T08:18:43Z</time>
      </trkpt>
      <trkpt lat="49.71658" lon="3.08235">
        <ele>65.84</ele>
        <time>2013-12-15T08:18:53Z</time>
      </trkpt>
      <trkpt lat="49.71634" lon="3.08235">
        <ele>65.35</ele>
        <time>2013-12-15T08:19:02Z</time>
      </trkpt>
      <trkpt lat="49.71615" lon="3.08234">
        <ele>64.99</ele>
        <time>2013-12-15T08:19:10Z</time>
      </trkpt>
      <trkpt lat="49.71589" lon="3.08237">
        <ele>64.44</ele>
        <time>2013-12-15T08:19:20Z</time>
      </trkpt>
      <trkpt lat="49.71559" lon="3.08234">
        <ele>64.57</ele>
        <time>2013-12-15T08:19:30Z</time>
      </trkpt>
      <trkpt lat="49.71529" lon="3.08231">
        <ele>64.81</ele>
        <time>2013-12-15T08:19:39Z</time>
      </trkpt>
      <trkpt lat="49.71498" lon="3.0823">
        <ele>64.98</ele>
        <time>2013-12-15T08:19:48Z</time>
      </trkpt>
      <trkpt lat="49.71466" lon="3.08231">
        <ele>64.6</ele>
        <time>2013-12-15T08:19:57Z</time>
      </trkpt>
      <trkpt lat="49.71448" lon="3.08231">
        <ele>64.38</ele>
        <time>2013-12-15T08:20:02Z</time>
      </trkpt>
      <trkpt lat="49.7143" lon="3.08233">
        <ele>64.15</ele>
        <time>2013-12-15T08:20:07Z</time>
      </trkpt>
      <trkpt lat="49.71395" lon="3.08236">
        <ele>64.26</ele>
        <time>2013-12-15T08:20:16Z</time>
      </trkpt>
      <trkpt lat="49.7136" lon="3.08246">
        <ele>64.68</ele>
        <time>2013-12-15T08:20:25Z</time>
      </trkpt>
      <trkpt lat="49.71337" lon="3.08267">
        <ele>65.17</ele>
        <time>2013-12-15T08:20:33Z</time>
      </trkpt>
      <trkpt lat="49.71323" lon="3.08285">
        <ele>65.25</ele>
        <time>2013-12-15T08:20:38Z</time>
      </trkpt>
      <trkpt lat="49.71298" lon="3.08317">
        <ele>65.05</ele>
        <time>2013-12-15T08:20:47Z</time>
      </trkpt>
      <trkpt lat="49.71275" lon="3.08347">
        <ele>64.77</ele>
        <time>2013-12-15T08:20:56Z</time>
      </trkpt>
      <trkpt lat="49.71246" lon="3.08361">
        <ele>64.75</ele>
        <time>2013-12-15T08:21:05Z</time>
      </trkpt>
      <trkpt lat="49.71216" lon="3.08374">
        <ele>65.59</ele>
        <time>2013-12-15T08:21:14Z</time>
      </trkpt>
      <trkpt lat="49.7119" lon="3.08384">
        <ele>66.22</ele>
        <time>2013-12-15T08:21:22Z</time>
      </trkpt>
      <trkpt lat="49.71164" lon="3.08393">
        <ele>66.68</ele>
        <time>2013-12-15T08:21:32Z</time>
      </trkpt>
      <trkpt lat="49.71137" lon="3.08402">
        <ele>66.47</ele>
        <time>2013-12-15T08:21:41Z</time>
      </trkpt>
      <trkpt lat="49.71107" lon="3.08409">
        <ele>66.19</ele>
        <time>2013-12-15T08:21:50Z</time>
      </trkpt>
      <trkpt lat="49.71074" lon="3.08417">
        <ele>66.11</ele>
        <time>2013-12-15T08:22:00Z</time>
      </trkpt>
      <trkpt lat="49.71043" lon="3.08425">
        <ele>66.59</ele>
        <time>2013-12-15T08:22:09Z</time>
      </trkpt>
      <trkpt lat="49.71012" lon="3.08437">
        <ele>67.1</ele>
        <time>2013-12-15T08:22:18Z</time>
      </trkpt>
      <trkpt lat="49.70995" lon="3.08445">
        <ele>67.36</ele>
        <time>2013-12-15T08:22:23Z</time>
      </trkpt>
      <trkpt lat="49.70967" lon="3.08453">
        <ele>67.61</ele>
        <time>2013-12-15T08:22:31Z</time>
      </trkpt>
      <trkpt lat="49.70937" lon="3.08463">
        <ele>67.98</ele>
        <time>2013-12-15T08:22:40Z</time>
      </trkpt>
      <trkpt lat="49.70903" lon="3.08472">
        <ele>68.27</ele>
        <time>2013-12-15T08:22:50Z</time>
      </trkpt>
      <trkpt lat="49.70871" lon="3.08477">
        <ele>68.2</ele>
        <time>2013-12-15T08:22:59Z</time>
      </trkpt>
      <trkpt lat="49.7084" lon="3.08482">
        <ele>68.04</ele>
        <time>2013-12-15T08:23:08Z</time>
      </trkpt>
      <trkpt lat="49.70807" lon="3.08487">
        <ele>68.27</ele>
        <time>2013-12-15T08:23:17Z</time>
      </trkpt>
      <trkpt lat="49.70777" lon="3.08486">
        <ele>68.57</ele>
        <time>2013-12-15T08:23:26Z</time>
      </trkpt>
      <trkpt lat="49.70758" lon="3.08488">
        <ele>68.78</ele>
        <time>2013-12-15T08:23:31Z</time>
      </trkpt>
      <trkpt lat="49.70727" lon="3.08486">
        <ele>68.83</ele>
        <time>2013-12-15T08:23:40Z</time>
      </trkpt>
      <trkpt lat="49.70696" lon="3.08481">
        <ele>68.78</ele>
        <time>2013-12-15T08:23:49Z</time>
      </trkpt>
      <trkpt lat="49.70663" lon="3.08475">
        <ele>68.74</ele>
        <time>2013-12-15T08:23:58Z</time>
      </trkpt>
      <trkpt lat="49.7063" lon="3.08468">
        <ele>69.05</ele>
        <time>2013-12-15T08:24:07Z</time>
      </trkpt>
      <trkpt lat="49.70597" lon="3.08459">
        <ele>69.34</ele>
        <time>2013-12-15T08:24:16Z</time>
      </trkpt>
      <trkpt lat="49.70578" lon="3.08453">
        <ele>69.5</ele>
        <time>2013-12-15T08:24:21Z</time>
      </trkpt>
      <trkpt lat="49.7056" lon="3.08448">
        <ele>69.65</ele>
        <time>2013-12-15T08:24:26Z</time>
      </trkpt>
      <trkpt lat="49.70543" lon="3.0844">
        <ele>69.77</ele>
        <time>2013-12-15T08:24:31Z</time>
      </trkpt>
      <trkpt lat="49.70518" lon="3.08426">
        <ele>69.9</ele>
        <time>2013-12-15T08:24:39Z</time>
      </trkpt>
      <trkpt lat="49.70489" lon="3.08417">
        <ele>69.86</ele>
        <time>2013-12-15T08:24:49Z</time>
      </trkpt>
      <trkpt lat="49.70483" lon="3.0845">
        <ele>70.19</ele>
        <time>2013-12-15T08:24:58Z</time>
      </trkpt>
      <trkpt lat="49.70482" lon="3.08484">
        <ele>70.59</ele>
        <time>2013-12-15T08:25:07Z</time>
      </trkpt>
      <trkpt lat="49.70482" lon="3.08524">
        <ele>70.56</ele>
        <time>2013-12-15T08:25:16Z</time>
      </trkpt>
      <trkpt lat="49.70477" lon="3.08564">
        <ele>70.17</ele>
        <time>2013-12-15T08:25:25Z</time>
      </trkpt>
      <trkpt lat="49.70474" lon="3.08603">
        <ele>70.31</ele>
        <time>2013-12-15T08:25:34Z</time>
      </trkpt>
      <trkpt lat="49.70469" lon="3.08639">
        <ele>70.91</ele>
        <time>2013-12-15T08:25:43Z</time>
      </trkpt>
      <trkpt lat="49.70464" lon="3.08675">
        <ele>71.67</ele>
        <time>2013-12-15T08:25:52Z</time>
      </trkpt>
      <trkpt lat="49.70459" lon="3.0871">
        <ele>72.78</ele>
        <time>2013-12-15T08:26:01Z</time>
      </trkpt>
      <trkpt lat="49.7046" lon="3.08745">
        <ele>73.82</ele>
        <time>2013-12-15T08:26:10Z</time>
      </trkpt>
      <trkpt lat="49.70467" lon="3.0878">
        <ele>74.15</ele>
        <time>2013-12-15T08:26:20Z</time>
      </trkpt>
      <trkpt lat="49.70465" lon="3.08814">
        <ele>74.6</ele>
        <time>2013-12-15T08:26:29Z</time>
      </trkpt>
      <trkpt lat="49.70459" lon="3.08842">
        <ele>75.13</ele>
        <time>2013-12-15T08:26:39Z</time>
      </trkpt>
      <trkpt lat="49.70445" lon="3.0887">
        <ele>75.91</ele>
        <time>2013-12-15T08:26:53Z</time>
      </trkpt>
      <trkpt lat="49.70434" lon="3.08897">
        <ele>76.52</ele>
        <time>2013-12-15T08:27:07Z</time>
      </trkpt>
      <trkpt lat="49.70421" lon="3.08925">
        <ele>76.84</ele>
        <time>2013-12-15T08:27:25Z</time>
      </trkpt>
      <trkpt lat="49.70407" lon="3.08948">
        <ele>76.48</ele>
        <time>2013-12-15T08:28:01Z</time>
      </trkpt>
      <trkpt lat="49.70396" lon="3.0898">
        <ele>76.12</ele>
        <time>2013-12-15T08:28:10Z</time>
      </trkpt>
      <trkpt lat="49.70382" lon="3.09016">
        <ele>75.89</ele>
        <time>2013-12-15T08:28:19Z</time>
      </trkpt>
      <trkpt lat="49.70369" lon="3.09056">
        <ele>75.71</ele>
        <time>2013-12-15T08:28:28Z</time>
      </trkpt>
      <trkpt lat="49.70356" lon="3.09095">
        <ele>75.69</ele>
        <time>2013-12-15T08:28:37Z</time>
      </trkpt>
      <trkpt lat="49.70345" lon="3.09132">
        <ele>75.78</ele>
        <time>2013-12-15T08:28:46Z</time>
      </trkpt>
      <trkpt lat="49.70331" lon="3.09173">
        <ele>75.88</ele>
        <time>2013-12-15T08:28:55Z</time>
      </trkpt>
      <trkpt lat="49.70317" lon="3.09217">
        <ele>75.24</ele>
        <time>2013-12-15T08:29:04Z</time>
      </trkpt>
      <trkpt lat="49.70302" lon="3.09257">
        <ele>74.98</ele>
        <time>2013-12-15T08:29:13Z</time>
      </trkpt>
      <trkpt lat="49.7029" lon="3.09296">
        <ele>75.03</ele>
        <time>2013-12-15T08:29:22Z</time>
      </trkpt>
      <trkpt lat="49.70273" lon="3.09333">
        <ele>75.45</ele>
        <time>2013-12-15T08:29:32Z</time>
      </trkpt>
      <trkpt lat="49.70259" lon="3.09372">
        <ele>75.8</ele>
        <time>2013-12-15T08:29:41Z</time>
      </trkpt>
      <trkpt lat="49.70241" lon="3.09415">
        <ele>76.1</ele>
        <time>2013-12-15T08:29:51Z</time>
      </trkpt>
      <trkpt lat="49.70229" lon="3.09451">
        <ele>76.15</ele>
        <time>2013-12-15T08:30:01Z</time>
      </trkpt>
      <trkpt lat="49.70224" lon="3.09484">
        <ele>76.06</ele>
        <time>2013-12-15T08:30:09Z</time>
      </trkpt>
      <trkpt lat="49.7022" lon="3.09533">
        <ele>75.35</ele>
        <time>2013-12-15T08:30:19Z</time>
      </trkpt>
      <trkpt lat="49.70212" lon="3.0958">
        <ele>74.52</ele>
        <time>2013-12-15T08:30:28Z</time>
      </trkpt>
      <trkpt lat="49.70204" lon="3.0961">
        <ele>74.55</ele>
        <time>2013-12-15T08:30:33Z</time>
      </trkpt>
      <trkpt lat="49.70197" lon="3.09638">
        <ele>74.64</ele>
        <time>2013-12-15T08:30:38Z</time>
      </trkpt>
      <trkpt lat="49.70179" lon="3.09684">
        <ele>74.44</ele>
        <time>2013-12-15T08:30:47Z</time>
      </trkpt>
      <trkpt lat="49.70161" lon="3.09721">
        <ele>73.74</ele>
        <time>2013-12-15T08:30:56Z</time>
      </trkpt>
      <trkpt lat="49.70147" lon="3.09744">
        <ele>73.35</ele>
        <time>2013-12-15T08:31:01Z</time>
      </trkpt>
      <trkpt lat="49.70126" lon="3.09777">
        <ele>73.49</ele>
        <time>2013-12-15T08:31:09Z</time>
      </trkpt>
      <trkpt lat="49.70112" lon="3.09796">
        <ele>73.66</ele>
        <time>2013-12-15T08:31:14Z</time>
      </trkpt>
      <trkpt lat="49.70091" lon="3.09826">
        <ele>73.91</ele>
        <time>2013-12-15T08:31:23Z</time>
      </trkpt>
      <trkpt lat="49.70069" lon="3.09858">
        <ele>74.45</ele>
        <time>2013-12-15T08:31:32Z</time>
      </trkpt>
      <trkpt lat="49.70056" lon="3.09879">
        <ele>74.8</ele>
        <time>2013-12-15T08:31:37Z</time>
      </trkpt>
      <trkpt lat="49.70034" lon="3.09913">
        <ele>75.22</ele>
        <time>2013-12-15T08:31:46Z</time>
      </trkpt>
      <trkpt lat="49.70021" lon="3.09932">
        <ele>75.46</ele>
        <time>2013-12-15T08:31:51Z</time>
      </trkpt>
      <trkpt lat="49.69997" lon="3.09968">
        <ele>75.46</ele>
        <time>2013-12-15T08:32:01Z</time>
      </trkpt>
      <trkpt lat="49.69979" lon="3.09996">
        <ele>75.56</ele>
        <time>2013-12-15T08:32:09Z</time>
      </trkpt>
      <trkpt lat="49.69957" lon="3.10029">
        <ele>75.85</ele>
        <time>2013-12-15T08:32:19Z</time>
      </trkpt>
      <trkpt lat="49.69933" lon="3.10063">
        <ele>76</ele>
        <time>2013-12-15T08:32:29Z</time>
      </trkpt>
      <trkpt lat="49.69913" lon="3.10096">
        <ele>76.14</ele>
        <time>2013-12-15T08:32:38Z</time>
      </trkpt>
      <trkpt lat="49.699" lon="3.10135">
        <ele>76.35</ele>
        <time>2013-12-15T08:32:47Z</time>
      </trkpt>
      <trkpt lat="49.69891" lon="3.10196">
        <ele>75.96</ele>
        <time>2013-12-15T08:32:56Z</time>
      </trkpt>
      <trkpt lat="49.69884" lon="3.10232">
        <ele>75.6</ele>
        <time>2013-12-15T08:33:00Z</time>
      </trkpt>
      <trkpt lat="49.69876" lon="3.1028">
        <ele>75.48</ele>
        <time>2013-12-15T08:33:05Z</time>
      </trkpt>
      <trkpt lat="49.6987" lon="3.1032">
        <ele>75.57</ele>
        <time>2013-12-15T08:33:09Z</time>
      </trkpt>
      <trkpt lat="49.6986" lon="3.10374">
        <ele>74.7</ele>
        <time>2013-12-15T08:33:14Z</time>
      </trkpt>
      <trkpt lat="49.6985" lon="3.10429">
        <ele>73.68</ele>
        <time>2013-12-15T08:33:19Z</time>
      </trkpt>
      <trkpt lat="49.69842" lon="3.10472">
        <ele>73.3</ele>
        <time>2013-12-15T08:33:23Z</time>
      </trkpt>
      <trkpt lat="49.69834" lon="3.10515">
        <ele>72.82</ele>
        <time>2013-12-15T08:33:27Z</time>
      </trkpt>
      <trkpt lat="49.69825" lon="3.10568">
        <ele>72.29</ele>
        <time>2013-12-15T08:33:32Z</time>
      </trkpt>
      <trkpt lat="49.69818" lon="3.1061">
        <ele>71.93</ele>
        <time>2013-12-15T08:33:36Z</time>
      </trkpt>
      <trkpt lat="49.69809" lon="3.10665">
        <ele>71.6</ele>
        <time>2013-12-15T08:33:41Z</time>
      </trkpt>
      <trkpt lat="49.69801" lon="3.10709">
        <ele>71.59</ele>
        <time>2013-12-15T08:33:45Z</time>
      </trkpt>
      <trkpt lat="49.69791" lon="3.10765">
        <ele>71.42</ele>
        <time>2013-12-15T08:33:50Z</time>
      </trkpt>
      <trkpt lat="49.69783" lon="3.10806">
        <ele>71.2</ele>
        <time>2013-12-15T08:33:54Z</time>
      </trkpt>
      <trkpt lat="49.69776" lon="3.10858">
        <ele>71</ele>
        <time>2013-12-15T08:33:59Z</time>
      </trkpt>
      <trkpt lat="49.69779" lon="3.10901">
        <ele>71</ele>
        <time>2013-12-15T08:34:03Z</time>
      </trkpt>
      <trkpt lat="49.69786" lon="3.10954">
        <ele>71.51</ele>
        <time>2013-12-15T08:34:08Z</time>
      </trkpt>
      <trkpt lat="49.6979" lon="3.11005">
        <ele>72.12</ele>
        <time>2013-12-15T08:34:13Z</time>
      </trkpt>
      <trkpt lat="49.69793" lon="3.11054">
        <ele>72.95</ele>
        <time>2013-12-15T08:34:18Z</time>
      </trkpt>
      <trkpt lat="49.69794" lon="3.11091">
        <ele>73.52</ele>
        <time>2013-12-15T08:34:23Z</time>
      </trkpt>
      <trkpt lat="49.69796" lon="3.11132">
        <ele>73.77</ele>
        <time>2013-12-15T08:34:32Z</time>
      </trkpt>
      <trkpt lat="49.6979" lon="3.11165">
        <ele>73.99</ele>
        <time>2013-12-15T08:34:41Z</time>
      </trkpt>
      <trkpt lat="49.69771" lon="3.11179">
        <ele>74.14</ele>
        <time>2013-12-15T08:35:14Z</time>
      </trkpt>
      <trkpt lat="49.6977" lon="3.11224">
        <ele>74.69</ele>
        <time>2013-12-15T08:35:27Z</time>
      </trkpt>
      <trkpt lat="49.69782" lon="3.11254">
        <ele>75.01</ele>
        <time>2013-12-15T08:35:32Z</time>
      </trkpt>
      <trkpt lat="49.69792" lon="3.11278">
        <ele>75</ele>
        <time>2013-12-15T08:35:37Z</time>
      </trkpt>
      <trkpt lat="49.69802" lon="3.11318">
        <ele>74.8</ele>
        <time>2013-12-15T08:35:45Z</time>
      </trkpt>
      <trkpt lat="49.69808" lon="3.11345">
        <ele>74.69</ele>
        <time>2013-12-15T08:35:50Z</time>
      </trkpt>
      <trkpt lat="49.69818" lon="3.11391">
        <ele>74.93</ele>
        <time>2013-12-15T08:35:59Z</time>
      </trkpt>
      <trkpt lat="49.69824" lon="3.11418">
        <ele>75.11</ele>
        <time>2013-12-15T08:36:04Z</time>
      </trkpt>
      <trkpt lat="49.69833" lon="3.1147">
        <ele>75</ele>
        <time>2013-12-15T08:36:13Z</time>
      </trkpt>
      <trkpt lat="49.69816" lon="3.11495">
        <ele>75.01</ele>
        <time>2013-12-15T08:36:22Z</time>
      </trkpt>
      <trkpt lat="49.69795" lon="3.11506">
        <ele>74.99</ele>
        <time>2013-12-15T08:36:31Z</time>
      </trkpt>
      <trkpt lat="49.69771" lon="3.11517">
        <ele>75.1</ele>
        <time>2013-12-15T08:36:41Z</time>
      </trkpt>
      <trkpt lat="49.69747" lon="3.11527">
        <ele>75.4</ele>
        <time>2013-12-15T08:36:50Z</time>
      </trkpt>
      <trkpt lat="49.69728" lon="3.1154">
        <ele>76.02</ele>
        <time>2013-12-15T08:36:59Z</time>
      </trkpt>
      <trkpt lat="49.69704" lon="3.11552">
        <ele>76.59</ele>
        <time>2013-12-15T08:37:12Z</time>
      </trkpt>
      <trkpt lat="49.69683" lon="3.11562">
        <ele>76.96</ele>
        <time>2013-12-15T08:37:22Z</time>
      </trkpt>
      <trkpt lat="49.69664" lon="3.11565">
        <ele>77.24</ele>
        <time>2013-12-15T08:37:31Z</time>
      </trkpt>
      <trkpt lat="49.69644" lon="3.11574">
        <ele>77.33</ele>
        <time>2013-12-15T08:37:41Z</time>
      </trkpt>
      <trkpt lat="49.6962" lon="3.11582">
        <ele>77.56</ele>
        <time>2013-12-15T08:37:54Z</time>
      </trkpt>
      <trkpt lat="49.69599" lon="3.11584">
        <ele>77.82</ele>
        <time>2013-12-15T08:38:12Z</time>
      </trkpt>
      <trkpt lat="49.69578" lon="3.11585">
        <ele>78.08</ele>
        <time>2013-12-15T08:38:30Z</time>
      </trkpt>
      <trkpt lat="49.69558" lon="3.11586">
        <ele>78.34</ele>
        <time>2013-12-15T08:39:08Z</time>
      </trkpt>
      <trkpt lat="49.69539" lon="3.11584">
        <ele>78.55</ele>
        <time>2013-12-15T08:39:36Z</time>
      </trkpt>
      <trkpt lat="49.69517" lon="3.11579">
        <ele>78.68</ele>
        <time>2013-12-15T08:41:25Z</time>
      </trkpt>
      <trkpt lat="49.69497" lon="3.11569">
        <ele>78.65</ele>
        <time>2013-12-15T08:41:33Z</time>
      </trkpt>
      <trkpt lat="49.69469" lon="3.11561">
        <ele>79.68</ele>
        <time>2013-12-15T08:41:43Z</time>
      </trkpt>
      <trkpt lat="49.69443" lon="3.11557">
        <ele>80.8</ele>
        <time>2013-12-15T08:41:57Z</time>
      </trkpt>
      <trkpt lat="49.69424" lon="3.11573">
        <ele>82.28</ele>
        <time>2013-12-15T08:42:25Z</time>
      </trkpt>
      <trkpt lat="49.69407" lon="3.11587">
        <ele>83.29</ele>
        <time>2013-12-15T08:42:38Z</time>
      </trkpt>
      <trkpt lat="49.69388" lon="3.11599">
        <ele>83.88</ele>
        <time>2013-12-15T08:42:51Z</time>
      </trkpt>
      <trkpt lat="49.69366" lon="3.11607">
        <ele>84.51</ele>
        <time>2013-12-15T08:44:15Z</time>
      </trkpt>
      <trkpt lat="49.69344" lon="3.11612">
        <ele>85.09</ele>
        <time>2013-12-15T08:44:25Z</time>
      </trkpt>
      <trkpt lat="49.69322" lon="3.11612">
        <ele>85.34</ele>
        <time>2013-12-15T08:44:34Z</time>
      </trkpt>
      <trkpt lat="49.69296" lon="3.11615">
        <ele>85.38</ele>
        <time>2013-12-15T08:44:43Z</time>
      </trkpt>
      <trkpt lat="49.69269" lon="3.11618">
        <ele>85.41</ele>
        <time>2013-12-15T08:44:52Z</time>
      </trkpt>
      <trkpt lat="49.69241" lon="3.11621">
        <ele>85.72</ele>
        <time>2013-12-15T08:45:01Z</time>
      </trkpt>
      <trkpt lat="49.69213" lon="3.11615">
        <ele>86.44</ele>
        <time>2013-12-15T08:45:10Z</time>
      </trkpt>
      <trkpt lat="49.69179" lon="3.11604">
        <ele>87.16</ele>
        <time>2013-12-15T08:45:20Z</time>
      </trkpt>
      <trkpt lat="49.69147" lon="3.11592">
        <ele>87.44</ele>
        <time>2013-12-15T08:45:29Z</time>
      </trkpt>
      <trkpt lat="49.69118" lon="3.1158">
        <ele>87.45</ele>
        <time>2013-12-15T08:45:38Z</time>
      </trkpt>
      <trkpt lat="49.69099" lon="3.11572">
        <ele>87.4</ele>
        <time>2013-12-15T08:45:43Z</time>
      </trkpt>
      <trkpt lat="49.69069" lon="3.11554">
        <ele>87</ele>
        <time>2013-12-15T08:45:51Z</time>
      </trkpt>
      <trkpt lat="49.69037" lon="3.11547">
        <ele>86.94</ele>
        <time>2013-12-15T08:46:01Z</time>
      </trkpt>
      <trkpt lat="49.69008" lon="3.11544">
        <ele>87.02</ele>
        <time>2013-12-15T08:46:09Z</time>
      </trkpt>
      <trkpt lat="49.6899" lon="3.11541">
        <ele>87.29</ele>
        <time>2013-12-15T08:46:14Z</time>
      </trkpt>
      <trkpt lat="49.68961" lon="3.11539">
        <ele>88.15</ele>
        <time>2013-12-15T08:46:23Z</time>
      </trkpt>
      <trkpt lat="49.68933" lon="3.11538">
        <ele>89.02</ele>
        <time>2013-12-15T08:46:32Z</time>
      </trkpt>
      <trkpt lat="49.68915" lon="3.1156">
        <ele>89.35</ele>
        <time>2013-12-15T08:46:41Z</time>
      </trkpt>
      <trkpt lat="49.6892" lon="3.11594">
        <ele>88.96</ele>
        <time>2013-12-15T08:47:38Z</time>
      </trkpt>
      <trkpt lat="49.68923" lon="3.11626">
        <ele>88.96</ele>
        <time>2013-12-15T08:47:47Z</time>
      </trkpt>
      <trkpt lat="49.68927" lon="3.11673">
        <ele>89.09</ele>
        <time>2013-12-15T08:47:57Z</time>
      </trkpt>
      <trkpt lat="49.68932" lon="3.11714">
        <ele>89.67</ele>
        <time>2013-12-15T08:48:07Z</time>
      </trkpt>
      <trkpt lat="49.68936" lon="3.1176">
        <ele>90.33</ele>
        <time>2013-12-15T08:48:17Z</time>
      </trkpt>
      <trkpt lat="49.68943" lon="3.11804">
        <ele>90.76</ele>
        <time>2013-12-15T08:48:26Z</time>
      </trkpt>
      <trkpt lat="49.68951" lon="3.11857">
        <ele>90.88</ele>
        <time>2013-12-15T08:48:36Z</time>
      </trkpt>
      <trkpt lat="49.68959" lon="3.11883">
        <ele>90.7</ele>
        <time>2013-12-15T08:48:41Z</time>
      </trkpt>
      <trkpt lat="49.68977" lon="3.11924">
        <ele>90.31</ele>
        <time>2013-12-15T08:48:50Z</time>
      </trkpt>
      <trkpt lat="49.68989" lon="3.11945">
        <ele>90.38</ele>
        <time>2013-12-15T08:48:55Z</time>
      </trkpt>
      <trkpt lat="49.69001" lon="3.11967">
        <ele>90.61</ele>
        <time>2013-12-15T08:49:00Z</time>
      </trkpt>
      <trkpt lat="49.69023" lon="3.12007">
        <ele>90.94</ele>
        <time>2013-12-15T08:49:09Z</time>
      </trkpt>
      <trkpt lat="49.69035" lon="3.12028">
        <ele>90.8</ele>
        <time>2013-12-15T08:49:14Z</time>
      </trkpt>
      <trkpt lat="49.69049" lon="3.12074">
        <ele>90.64</ele>
        <time>2013-12-15T08:49:23Z</time>
      </trkpt>
      <trkpt lat="49.69055" lon="3.1212">
        <ele>90.95</ele>
        <time>2013-12-15T08:49:32Z</time>
      </trkpt>
      <trkpt lat="49.6906" lon="3.12167">
        <ele>91.45</ele>
        <time>2013-12-15T08:49:41Z</time>
      </trkpt>
      <trkpt lat="49.69064" lon="3.12213">
        <ele>92.63</ele>
        <time>2013-12-15T08:49:51Z</time>
      </trkpt>
      <trkpt lat="49.69057" lon="3.1226">
        <ele>93.49</ele>
        <time>2013-12-15T08:50:01Z</time>
      </trkpt>
      <trkpt lat="49.69032" lon="3.12269">
        <ele>93</ele>
        <time>2013-12-15T08:50:09Z</time>
      </trkpt>
      <trkpt lat="49.68999" lon="3.12277">
        <ele>92.29</ele>
        <time>2013-12-15T08:50:19Z</time>
      </trkpt>
      <trkpt lat="49.68974" lon="3.12284">
        <ele>91.78</ele>
        <time>2013-12-15T08:50:28Z</time>
      </trkpt>
      <trkpt lat="49.68946" lon="3.12273">
        <ele>90.98</ele>
        <time>2013-12-15T08:50:38Z</time>
      </trkpt>
      <trkpt lat="49.68916" lon="3.12252">
        <ele>90.02</ele>
        <time>2013-12-15T08:50:48Z</time>
      </trkpt>
      <trkpt lat="49.68888" lon="3.12235">
        <ele>89.13</ele>
        <time>2013-12-15T08:50:57Z</time>
      </trkpt>
      <trkpt lat="49.68856" lon="3.12216">
        <ele>88.13</ele>
        <time>2013-12-15T08:51:07Z</time>
      </trkpt>
      <trkpt lat="49.68831" lon="3.122">
        <ele>87.44</ele>
        <time>2013-12-15T08:51:15Z</time>
      </trkpt>
      <trkpt lat="49.68805" lon="3.1219">
        <ele>87.72</ele>
        <time>2013-12-15T08:51:25Z</time>
      </trkpt>
      <trkpt lat="49.68786" lon="3.12195">
        <ele>88.11</ele>
        <time>2013-12-15T08:51:38Z</time>
      </trkpt>
      <trkpt lat="49.68768" lon="3.1221">
        <ele>88.71</ele>
        <time>2013-12-15T08:53:08Z</time>
      </trkpt>
      <trkpt lat="49.68747" lon="3.12222">
        <ele>89.36</ele>
        <time>2013-12-15T08:53:45Z</time>
      </trkpt>
      <trkpt lat="49.68724" lon="3.12237">
        <ele>90.04</ele>
        <time>2013-12-15T08:53:55Z</time>
      </trkpt>
      <trkpt lat="49.68703" lon="3.1225">
        <ele>90.57</ele>
        <time>2013-12-15T08:54:04Z</time>
      </trkpt>
      <trkpt lat="49.68684" lon="3.12261">
        <ele>90.82</ele>
        <time>2013-12-15T08:54:12Z</time>
      </trkpt>
      <trkpt lat="49.68666" lon="3.12273">
        <ele>91.02</ele>
        <time>2013-12-15T08:54:21Z</time>
      </trkpt>
      <trkpt lat="49.68645" lon="3.12287">
        <ele>91.63</ele>
        <time>2013-12-15T08:54:31Z</time>
      </trkpt>
      <trkpt lat="49.68628" lon="3.12297">
        <ele>92.18</ele>
        <time>2013-12-15T08:54:40Z</time>
      </trkpt>
      <trkpt lat="49.6861" lon="3.12308">
        <ele>92.83</ele>
        <time>2013-12-15T08:54:50Z</time>
      </trkpt>
      <trkpt lat="49.68586" lon="3.12325">
        <ele>93.8</ele>
        <time>2013-12-15T08:55:04Z</time>
      </trkpt>
      <trkpt lat="49.68562" lon="3.12341">
        <ele>94.18</ele>
        <time>2013-12-15T08:55:19Z</time>
      </trkpt>
      <trkpt lat="49.6854" lon="3.12355">
        <ele>94.53</ele>
        <time>2013-12-15T08:55:32Z</time>
      </trkpt>
      <trkpt lat="49.68518" lon="3.12357">
        <ele>94.56</ele>
        <time>2013-12-15T08:55:45Z</time>
      </trkpt>
      <trkpt lat="49.68504" lon="3.12332">
        <ele>94</ele>
        <time>2013-12-15T08:55:55Z</time>
      </trkpt>
      <trkpt lat="49.68484" lon="3.12298">
        <ele>94.03</ele>
        <time>2013-12-15T08:56:08Z</time>
      </trkpt>
      <trkpt lat="49.68466" lon="3.12266">
        <ele>93.75</ele>
        <time>2013-12-15T08:56:18Z</time>
      </trkpt>
      <trkpt lat="49.68447" lon="3.12238">
        <ele>93.21</ele>
        <time>2013-12-15T08:56:27Z</time>
      </trkpt>
      <trkpt lat="49.68426" lon="3.12205">
        <ele>92.56</ele>
        <time>2013-12-15T08:56:37Z</time>
      </trkpt>
      <trkpt lat="49.68412" lon="3.12182">
        <ele>92.18</ele>
        <time>2013-12-15T08:56:42Z</time>
      </trkpt>
      <trkpt lat="49.68396" lon="3.12156">
        <ele>91.87</ele>
        <time>2013-12-15T08:56:47Z</time>
      </trkpt>
      <trkpt lat="49.6838" lon="3.1213">
        <ele>91.55</ele>
        <time>2013-12-15T08:56:52Z</time>
      </trkpt>
      <trkpt lat="49.68367" lon="3.1211">
        <ele>91.32</ele>
        <time>2013-12-15T08:56:56Z</time>
      </trkpt>
      <trkpt lat="49.68353" lon="3.12087">
        <ele>91.05</ele>
        <time>2013-12-15T08:57:01Z</time>
      </trkpt>
      <trkpt lat="49.68333" lon="3.12058">
        <ele>90.7</ele>
        <time>2013-12-15T08:57:09Z</time>
      </trkpt>
      <trkpt lat="49.6831" lon="3.12052">
        <ele>90.52</ele>
        <time>2013-12-15T08:57:19Z</time>
      </trkpt>
      <trkpt lat="49.68294" lon="3.12069">
        <ele>90.74</ele>
        <time>2013-12-15T08:57:27Z</time>
      </trkpt>
      <trkpt lat="49.68277" lon="3.1209">
        <ele>91.08</ele>
        <time>2013-12-15T08:57:36Z</time>
      </trkpt>
      <trkpt lat="49.68257" lon="3.12119">
        <ele>91.43</ele>
        <time>2013-12-15T08:57:49Z</time>
      </trkpt>
      <trkpt lat="49.68239" lon="3.12141">
        <ele>91.75</ele>
        <time>2013-12-15T08:57:58Z</time>
      </trkpt>
      <trkpt lat="49.68222" lon="3.12163">
        <ele>92.27</ele>
        <time>2013-12-15T08:58:07Z</time>
      </trkpt>
      <trkpt lat="49.68205" lon="3.12184">
        <ele>92.83</ele>
        <time>2013-12-15T08:58:16Z</time>
      </trkpt>
      <trkpt lat="49.68187" lon="3.12207">
        <ele>93.36</ele>
        <time>2013-12-15T08:58:26Z</time>
      </trkpt>
      <trkpt lat="49.68169" lon="3.1223">
        <ele>93.75</ele>
        <time>2013-12-15T08:58:35Z</time>
      </trkpt>
      <trkpt lat="49.68153" lon="3.12248">
        <ele>93.81</ele>
        <time>2013-12-15T08:58:43Z</time>
      </trkpt>
      <trkpt lat="49.68131" lon="3.12274">
        <ele>94.53</ele>
        <time>2013-12-15T08:58:53Z</time>
      </trkpt>
      <trkpt lat="49.68114" lon="3.12292">
        <ele>95.33</ele>
        <time>2013-12-15T08:59:02Z</time>
      </trkpt>
      <trkpt lat="49.68097" lon="3.12316">
        <ele>96.75</ele>
        <time>2013-12-15T08:59:11Z</time>
      </trkpt>
      <trkpt lat="49.68078" lon="3.12339">
        <ele>98.14</ele>
        <time>2013-12-15T08:59:20Z</time>
      </trkpt>
      <trkpt lat="49.68058" lon="3.12362">
        <ele>98.51</ele>
        <time>2013-12-15T08:59:29Z</time>
      </trkpt>
      <trkpt lat="49.68039" lon="3.12384">
        <ele>98.53</ele>
        <time>2013-12-15T08:59:38Z</time>
      </trkpt>
      <trkpt lat="49.68017" lon="3.12413">
        <ele>98.21</ele>
        <time>2013-12-15T08:59:47Z</time>
      </trkpt>
      <trkpt lat="49.67994" lon="3.12437">
        <ele>98.49</ele>
        <time>2013-12-15T08:59:56Z</time>
      </trkpt>
      <trkpt lat="49.67975" lon="3.12457">
        <ele>99.47</ele>
        <time>2013-12-15T09:00:05Z</time>
      </trkpt>
      <trkpt lat="49.67961" lon="3.12479">
        <ele>100.85</ele>
        <time>2013-12-15T09:00:14Z</time>
      </trkpt>
      <trkpt lat="49.67945" lon="3.12498">
        <ele>101.86</ele>
        <time>2013-12-15T09:00:23Z</time>
      </trkpt>
      <trkpt lat="49.67928" lon="3.12516">
        <ele>102.72</ele>
        <time>2013-12-15T09:00:32Z</time>
      </trkpt>
      <trkpt lat="49.6791" lon="3.12534">
        <ele>103.39</ele>
        <time>2013-12-15T09:00:41Z</time>
      </trkpt>
      <trkpt lat="49.67896" lon="3.12555">
        <ele>104.27</ele>
        <time>2013-12-15T09:00:50Z</time>
      </trkpt>
      <trkpt lat="49.67876" lon="3.12578">
        <ele>105.02</ele>
        <time>2013-12-15T09:01:03Z</time>
      </trkpt>
      <trkpt lat="49.67868" lon="3.12604">
        <ele>106.89</ele>
        <time>2013-12-15T09:01:17Z</time>
      </trkpt>
      <trkpt lat="49.67853" lon="3.12623">
        <ele>107.99</ele>
        <time>2013-12-15T09:05:03Z</time>
      </trkpt>
      <trkpt lat="49.67834" lon="3.1263">
        <ele>108.05</ele>
        <time>2013-12-15T09:05:18Z</time>
      </trkpt>
      <trkpt lat="49.6781" lon="3.12603">
        <ele>105.01</ele>
        <time>2013-12-15T09:05:32Z</time>
      </trkpt>
      <trkpt lat="49.67791" lon="3.12584">
        <ele>103.05</ele>
        <time>2013-12-15T09:05:41Z</time>
      </trkpt>
      <trkpt lat="49.67773" lon="3.12562">
        <ele>101.09</ele>
        <time>2013-12-15T09:05:50Z</time>
      </trkpt>
      <trkpt lat="49.67755" lon="3.12537">
        <ele>99.08</ele>
        <time>2013-12-15T09:05:58Z</time>
      </trkpt>
      <trkpt lat="49.67741" lon="3.12518">
        <ele>97.86</ele>
        <time>2013-12-15T09:06:03Z</time>
      </trkpt>
      <trkpt lat="49.67717" lon="3.12477">
        <ele>96.05</ele>
        <time>2013-12-15T09:06:13Z</time>
      </trkpt>
      <trkpt lat="49.67696" lon="3.12446">
        <ele>94.89</ele>
        <time>2013-12-15T09:06:21Z</time>
      </trkpt>
      <trkpt lat="49.67677" lon="3.12441">
        <ele>95.37</ele>
        <time>2013-12-15T09:06:26Z</time>
      </trkpt>
      <trkpt lat="49.67646" lon="3.12449">
        <ele>96.56</ele>
        <time>2013-12-15T09:06:36Z</time>
      </trkpt>
      <trkpt lat="49.6762" lon="3.1245">
        <ele>96.97</ele>
        <time>2013-12-15T09:06:45Z</time>
      </trkpt>
      <trkpt lat="49.67594" lon="3.12452">
        <ele>97.32</ele>
        <time>2013-12-15T09:06:55Z</time>
      </trkpt>
      <trkpt lat="49.67571" lon="3.12459">
        <ele>97.51</ele>
        <time>2013-12-15T09:07:05Z</time>
      </trkpt>
      <trkpt lat="49.67548" lon="3.12464">
        <ele>97.61</ele>
        <time>2013-12-15T09:07:14Z</time>
      </trkpt>
      <trkpt lat="49.67517" lon="3.12471">
        <ele>97.9</ele>
        <time>2013-12-15T09:07:24Z</time>
      </trkpt>
      <trkpt lat="49.67495" lon="3.12477">
        <ele>98.31</ele>
        <time>2013-12-15T09:07:33Z</time>
      </trkpt>
      <trkpt lat="49.67473" lon="3.12481">
        <ele>99.03</ele>
        <time>2013-12-15T09:07:42Z</time>
      </trkpt>
      <trkpt lat="49.6745" lon="3.12486">
        <ele>99.79</ele>
        <time>2013-12-15T09:07:51Z</time>
      </trkpt>
      <trkpt lat="49.67422" lon="3.12484">
        <ele>100.48</ele>
        <time>2013-12-15T09:08:01Z</time>
      </trkpt>
      <trkpt lat="49.674" lon="3.12486">
        <ele>100.87</ele>
        <time>2013-12-15T09:08:09Z</time>
      </trkpt>
      <trkpt lat="49.67376" lon="3.12488">
        <ele>101.19</ele>
        <time>2013-12-15T09:08:18Z</time>
      </trkpt>
      <trkpt lat="49.67349" lon="3.12495">
        <ele>101.69</ele>
        <time>2013-12-15T09:08:27Z</time>
      </trkpt>
      <trkpt lat="49.6732" lon="3.12506">
        <ele>102.47</ele>
        <time>2013-12-15T09:08:37Z</time>
      </trkpt>
      <trkpt lat="49.67301" lon="3.12516">
        <ele>103.24</ele>
        <time>2013-12-15T09:08:45Z</time>
      </trkpt>
      <trkpt lat="49.67275" lon="3.12538">
        <ele>104.61</ele>
        <time>2013-12-15T09:08:54Z</time>
      </trkpt>
      <trkpt lat="49.67256" lon="3.12565">
        <ele>106.13</ele>
        <time>2013-12-15T09:09:03Z</time>
      </trkpt>
      <trkpt lat="49.67239" lon="3.12592">
        <ele>107.08</ele>
        <time>2013-12-15T09:09:12Z</time>
      </trkpt>
      <trkpt lat="49.67223" lon="3.12623">
        <ele>108.09</ele>
        <time>2013-12-15T09:09:21Z</time>
      </trkpt>
      <trkpt lat="49.67199" lon="3.12663">
        <ele>109.79</ele>
        <time>2013-12-15T09:09:31Z</time>
      </trkpt>
      <trkpt lat="49.67182" lon="3.12692">
        <ele>111.39</ele>
        <time>2013-12-15T09:09:41Z</time>
      </trkpt>
      <trkpt lat="49.67169" lon="3.12725">
        <ele>112.85</ele>
        <time>2013-12-15T09:09:50Z</time>
      </trkpt>
      <trkpt lat="49.67153" lon="3.12757">
        <ele>113.49</ele>
        <time>2013-12-15T09:09:59Z</time>
      </trkpt>
      <trkpt lat="49.67137" lon="3.12783">
        <ele>113.41</ele>
        <time>2013-12-15T09:10:08Z</time>
      </trkpt>
      <trkpt lat="49.67121" lon="3.12801">
        <ele>112.68</ele>
        <time>2013-12-15T09:10:18Z</time>
      </trkpt>
      <trkpt lat="49.67107" lon="3.12819">
        <ele>111.95</ele>
        <time>2013-12-15T09:10:27Z</time>
      </trkpt>
      <trkpt lat="49.67084" lon="3.12836">
        <ele>110.04</ele>
        <time>2013-12-15T09:10:36Z</time>
      </trkpt>
      <trkpt lat="49.6706" lon="3.12843">
        <ele>107.73</ele>
        <time>2013-12-15T09:10:45Z</time>
      </trkpt>
      <trkpt lat="49.67036" lon="3.1284">
        <ele>105.39</ele>
        <time>2013-12-15T09:10:50Z</time>
      </trkpt>
      <trkpt lat="49.67001" lon="3.12826">
        <ele>102.22</ele>
        <time>2013-12-15T09:10:55Z</time>
      </trkpt>
      <trkpt lat="49.6698" lon="3.12804">
        <ele>101.29</ele>
        <time>2013-12-15T09:10:59Z</time>
      </trkpt>
      <trkpt lat="49.6696" lon="3.12775">
        <ele>100.43</ele>
        <time>2013-12-15T09:11:03Z</time>
      </trkpt>
      <trkpt lat="49.66942" lon="3.1276">
        <ele>99.5</ele>
        <time>2013-12-15T09:11:08Z</time>
      </trkpt>
      <trkpt lat="49.6692" lon="3.12752">
        <ele>98.2</ele>
        <time>2013-12-15T09:11:17Z</time>
      </trkpt>
      <trkpt lat="49.66894" lon="3.12746">
        <ele>101.17</ele>
        <time>2013-12-15T09:11:32Z</time>
      </trkpt>
      <trkpt lat="49.66875" lon="3.12739">
        <ele>103.55</ele>
        <time>2013-12-15T09:12:08Z</time>
      </trkpt>
      <trkpt lat="49.66855" lon="3.12734">
        <ele>106.03</ele>
        <time>2013-12-15T09:12:27Z</time>
      </trkpt>
      <trkpt lat="49.6683" lon="3.12729">
        <ele>108.56</ele>
        <time>2013-12-15T09:12:50Z</time>
      </trkpt>
      <trkpt lat="49.66805" lon="3.12712">
        <ele>107.23</ele>
        <time>2013-12-15T09:13:03Z</time>
      </trkpt>
      <trkpt lat="49.66785" lon="3.12699">
        <ele>106.64</ele>
        <time>2013-12-15T09:13:13Z</time>
      </trkpt>
      <trkpt lat="49.66769" lon="3.12685">
        <ele>106.22</ele>
        <time>2013-12-15T09:13:21Z</time>
      </trkpt>
      <trkpt lat="49.66745" lon="3.12684">
        <ele>106.94</ele>
        <time>2013-12-15T09:13:31Z</time>
      </trkpt>
      <trkpt lat="49.6672" lon="3.1269">
        <ele>106.64</ele>
        <time>2013-12-15T09:13:45Z</time>
      </trkpt>
      <trkpt lat="49.66693" lon="3.12692">
        <ele>105.99</ele>
        <time>2013-12-15T09:13:59Z</time>
      </trkpt>
      <trkpt lat="49.66671" lon="3.12698">
        <ele>105.48</ele>
        <time>2013-12-15T09:14:09Z</time>
      </trkpt>
      <trkpt lat="49.66645" lon="3.12701">
        <ele>106.03</ele>
        <time>2013-12-15T09:14:19Z</time>
      </trkpt>
      <trkpt lat="49.66622" lon="3.12709">
        <ele>106.83</ele>
        <time>2013-12-15T09:14:28Z</time>
      </trkpt>
      <trkpt lat="49.66595" lon="3.12716">
        <ele>107.82</ele>
        <time>2013-12-15T09:14:38Z</time>
      </trkpt>
      <trkpt lat="49.66578" lon="3.12724">
        <ele>108.8</ele>
        <time>2013-12-15T09:14:48Z</time>
      </trkpt>
      <trkpt lat="49.66558" lon="3.1273">
        <ele>110.56</ele>
        <time>2013-12-15T09:15:02Z</time>
      </trkpt>
      <trkpt lat="49.66538" lon="3.12735">
        <ele>112.39</ele>
        <time>2013-12-15T09:15:16Z</time>
      </trkpt>
      <trkpt lat="49.66513" lon="3.12743">
        <ele>114.67</ele>
        <time>2013-12-15T09:15:31Z</time>
      </trkpt>
      <trkpt lat="49.66493" lon="3.12748">
        <ele>117.22</ele>
        <time>2013-12-15T09:15:44Z</time>
      </trkpt>
      <trkpt lat="49.66466" lon="3.12747">
        <ele>122.38</ele>
        <time>2013-12-15T09:16:03Z</time>
      </trkpt>
      <trkpt lat="49.66445" lon="3.12746">
        <ele>126.31</ele>
        <time>2013-12-15T09:16:22Z</time>
      </trkpt>
      <trkpt lat="49.6642" lon="3.12758">
        <ele>131.71</ele>
        <time>2013-12-15T09:16:40Z</time>
      </trkpt>
      <trkpt lat="49.66401" lon="3.12768">
        <ele>135.9</ele>
        <time>2013-12-15T09:16:54Z</time>
      </trkpt>
      <trkpt lat="49.66385" lon="3.12782">
        <ele>139.48</ele>
        <time>2013-12-15T09:17:09Z</time>
      </trkpt>
      <trkpt lat="49.66366" lon="3.12784">
        <ele>143.11</ele>
        <time>2013-12-15T09:17:32Z</time>
      </trkpt>
      <trkpt lat="49.66345" lon="3.12785">
        <ele>147.09</ele>
        <time>2013-12-15T09:18:50Z</time>
      </trkpt>
      <trkpt lat="49.66319" lon="3.12786">
        <ele>151.72</ele>
        <time>2013-12-15T09:20:49Z</time>
      </trkpt>
      <trkpt lat="49.66299" lon="3.12783">
        <ele>154.72</ele>
        <time>2013-12-15T09:21:12Z</time>
      </trkpt>
      <trkpt lat="49.6628" lon="3.12776">
        <ele>157.78</ele>
        <time>2013-12-15T09:22:02Z</time>
      </trkpt>
      <trkpt lat="49.66261" lon="3.12777">
        <ele>160.92</ele>
        <time>2013-12-15T09:22:29Z</time>
      </trkpt>
      <trkpt lat="49.66239" lon="3.12792">
        <ele>163.15</ele>
        <time>2013-12-15T09:22:48Z</time>
      </trkpt>
      <trkpt lat="49.66219" lon="3.12806">
        <ele>163.85</ele>
        <time>2013-12-15T09:23:06Z</time>
      </trkpt>
      <trkpt lat="49.66195" lon="3.12804">
        <ele>164.13</ele>
        <time>2013-12-15T09:25:21Z</time>
      </trkpt>
      <trkpt lat="49.66173" lon="3.12803">
        <ele>164.46</ele>
        <time>2013-12-15T09:27:25Z</time>
      </trkpt>
      <trkpt lat="49.6615" lon="3.1281">
        <ele>165.51</ele>
        <time>2013-12-15T09:27:39Z</time>
      </trkpt>
      <trkpt lat="49.6613" lon="3.12811">
        <ele>166.25</ele>
        <time>2013-12-15T09:27:48Z</time>
      </trkpt>
      <trkpt lat="49.66105" lon="3.12811">
        <ele>167.16</ele>
        <time>2013-12-15T09:27:58Z</time>
      </trkpt>
      <trkpt lat="49.66086" lon="3.12798">
        <ele>167.19</ele>
        <time>2013-12-15T09:28:08Z</time>
      </trkpt>
      <trkpt lat="49.66061" lon="3.12785">
        <ele>166.99</ele>
        <time>2013-12-15T09:28:17Z</time>
      </trkpt>
      <trkpt lat="49.66035" lon="3.12772">
        <ele>166.9</ele>
        <time>2013-12-15T09:28:26Z</time>
      </trkpt>
      <trkpt lat="49.66012" lon="3.1276">
        <ele>166.97</ele>
        <time>2013-12-15T09:28:35Z</time>
      </trkpt>
      <trkpt lat="49.65992" lon="3.12738">
        <ele>166.14</ele>
        <time>2013-12-15T09:28:44Z</time>
      </trkpt>
      <trkpt lat="49.65977" lon="3.12723">
        <ele>165.2</ele>
        <time>2013-12-15T09:28:49Z</time>
      </trkpt>
      <trkpt lat="49.65947" lon="3.12712">
        <ele>164.61</ele>
        <time>2013-12-15T09:28:58Z</time>
      </trkpt>
      <trkpt lat="49.65916" lon="3.12696">
        <ele>164.31</ele>
        <time>2013-12-15T09:29:08Z</time>
      </trkpt>
      <trkpt lat="49.65898" lon="3.1268">
        <ele>162.76</ele>
        <time>2013-12-15T09:29:13Z</time>
      </trkpt>
      <trkpt lat="49.65858" lon="3.12644">
        <ele>160.13</ele>
        <time>2013-12-15T09:29:22Z</time>
      </trkpt>
      <trkpt lat="49.65842" lon="3.12624">
        <ele>159.52</ele>
        <time>2013-12-15T09:29:27Z</time>
      </trkpt>
      <trkpt lat="49.65826" lon="3.12607">
        <ele>157.53</ele>
        <time>2013-12-15T09:29:32Z</time>
      </trkpt>
      <trkpt lat="49.65803" lon="3.12577">
        <ele>152.26</ele>
        <time>2013-12-15T09:29:41Z</time>
      </trkpt>
      <trkpt lat="49.65783" lon="3.12539">
        <ele>147.25</ele>
        <time>2013-12-15T09:29:51Z</time>
      </trkpt>
      <trkpt lat="49.65772" lon="3.12499">
        <ele>145.19</ele>
        <time>2013-12-15T09:29:56Z</time>
      </trkpt>
      <trkpt lat="49.65761" lon="3.12454">
        <ele>140.57</ele>
        <time>2013-12-15T09:30:01Z</time>
      </trkpt>
      <trkpt lat="49.65744" lon="3.12444">
        <ele>137.34</ele>
        <time>2013-12-15T09:30:05Z</time>
      </trkpt>
      <trkpt lat="49.65738" lon="3.1248">
        <ele>137.8</ele>
        <time>2013-12-15T09:30:14Z</time>
      </trkpt>
      <trkpt lat="49.6574" lon="3.1252">
        <ele>138.44</ele>
        <time>2013-12-15T09:30:24Z</time>
      </trkpt>
      <trkpt lat="49.65743" lon="3.12565">
        <ele>138.2</ele>
        <time>2013-12-15T09:30:33Z</time>
      </trkpt>
      <trkpt lat="49.65764" lon="3.12578">
        <ele>142.65</ele>
        <time>2013-12-15T09:30:51Z</time>
      </trkpt>
      <trkpt lat="49.65775" lon="3.12607">
        <ele>144.33</ele>
        <time>2013-12-15T09:31:05Z</time>
      </trkpt>
      <trkpt lat="49.65773" lon="3.12651">
        <ele>141.94</ele>
        <time>2013-12-15T09:31:14Z</time>
      </trkpt>
      <trkpt lat="49.65773" lon="3.12685">
        <ele>141.08</ele>
        <time>2013-12-15T09:31:23Z</time>
      </trkpt>
      <trkpt lat="49.65757" lon="3.12713">
        <ele>136.38</ele>
        <time>2013-12-15T09:31:32Z</time>
      </trkpt>
      <trkpt lat="49.65742" lon="3.12748">
        <ele>132.3</ele>
        <time>2013-12-15T09:31:41Z</time>
      </trkpt>
      <trkpt lat="49.65751" lon="3.12807">
        <ele>137.64</ele>
        <time>2013-12-15T09:31:50Z</time>
      </trkpt>
      <trkpt lat="49.65757" lon="3.12839">
        <ele>141.19</ele>
        <time>2013-12-15T09:31:59Z</time>
      </trkpt>
      <trkpt lat="49.65751" lon="3.12877">
        <ele>143.32</ele>
        <time>2013-12-15T09:32:13Z</time>
      </trkpt>
      <trkpt lat="49.6574" lon="3.12908">
        <ele>143.28</ele>
        <time>2013-12-15T09:32:26Z</time>
      </trkpt>
      <trkpt lat="49.65732" lon="3.12934">
        <ele>142.88</ele>
        <time>2013-12-15T09:32:35Z</time>
      </trkpt>
      <trkpt lat="49.65729" lon="3.12964">
        <ele>143.63</ele>
        <time>2013-12-15T09:32:44Z</time>
      </trkpt>
      <trkpt lat="49.65723" lon="3.12997">
        <ele>144.09</ele>
        <time>2013-12-15T09:32:54Z</time>
      </trkpt>
      <trkpt lat="49.6572" lon="3.13032">
        <ele>144.29</ele>
        <time>2013-12-15T09:33:03Z</time>
      </trkpt>
      <trkpt lat="49.65716" lon="3.1307">
        <ele>144.52</ele>
        <time>2013-12-15T09:33:17Z</time>
      </trkpt>
      <trkpt lat="49.65715" lon="3.13113">
        <ele>145.4</ele>
        <time>2013-12-15T09:33:26Z</time>
      </trkpt>
      <trkpt lat="49.65715" lon="3.13143">
        <ele>146.4</ele>
        <time>2013-12-15T09:33:35Z</time>
      </trkpt>
      <trkpt lat="49.65715" lon="3.1318">
        <ele>147.34</ele>
        <time>2013-12-15T09:33:45Z</time>
      </trkpt>
      <trkpt lat="49.65717" lon="3.13215">
        <ele>148.15</ele>
        <time>2013-12-15T09:33:59Z</time>
      </trkpt>
      <trkpt lat="49.65717" lon="3.13249">
        <ele>148.34</ele>
        <time>2013-12-15T09:34:08Z</time>
      </trkpt>
      <trkpt lat="49.65715" lon="3.13285">
        <ele>147.23</ele>
        <time>2013-12-15T09:34:13Z</time>
      </trkpt>
      <trkpt lat="49.6572" lon="3.13313">
        <ele>147.78</ele>
        <time>2013-12-15T09:34:17Z</time>
      </trkpt>
      <trkpt lat="49.65729" lon="3.13359">
        <ele>150.4</ele>
        <time>2013-12-15T09:34:26Z</time>
      </trkpt>
      <trkpt lat="49.65733" lon="3.13395">
        <ele>152.2</ele>
        <time>2013-12-15T09:34:36Z</time>
      </trkpt>
      <trkpt lat="49.65735" lon="3.13429">
        <ele>152.71</ele>
        <time>2013-12-15T09:34:45Z</time>
      </trkpt>
      <trkpt lat="49.6573" lon="3.13469">
        <ele>150.76</ele>
        <time>2013-12-15T09:34:59Z</time>
      </trkpt>
      <trkpt lat="49.65728" lon="3.13497">
        <ele>149.57</ele>
        <time>2013-12-15T09:35:39Z</time>
      </trkpt>
      <trkpt lat="49.65708" lon="3.13515">
        <ele>143.26</ele>
        <time>2013-12-15T09:36:38Z</time>
      </trkpt>
      <trkpt lat="49.65694" lon="3.13544">
        <ele>136.5</ele>
        <time>2013-12-15T09:36:52Z</time>
      </trkpt>
      <trkpt lat="49.65673" lon="3.13567">
        <ele>130.08</ele>
        <time>2013-12-15T09:36:57Z</time>
      </trkpt>
      <trkpt lat="49.65643" lon="3.13591">
        <ele>124.99</ele>
        <time>2013-12-15T09:37:02Z</time>
      </trkpt>
      <trkpt lat="49.65614" lon="3.13614">
        <ele>121.96</ele>
        <time>2013-12-15T09:37:06Z</time>
      </trkpt>
      <trkpt lat="49.65583" lon="3.13637">
        <ele>119.44</ele>
        <time>2013-12-15T09:37:11Z</time>
      </trkpt>
      <trkpt lat="49.65566" lon="3.13652">
        <ele>119.43</ele>
        <time>2013-12-15T09:37:16Z</time>
      </trkpt>
      <trkpt lat="49.65546" lon="3.13672">
        <ele>119.71</ele>
        <time>2013-12-15T09:37:26Z</time>
      </trkpt>
      <trkpt lat="49.65528" lon="3.13682">
        <ele>120.45</ele>
        <time>2013-12-15T09:37:35Z</time>
      </trkpt>
      <trkpt lat="49.65511" lon="3.13696">
        <ele>121.37</ele>
        <time>2013-12-15T09:37:44Z</time>
      </trkpt>
      <trkpt lat="49.65492" lon="3.13712">
        <ele>122.12</ele>
        <time>2013-12-15T09:37:53Z</time>
      </trkpt>
      <trkpt lat="49.65473" lon="3.13736">
        <ele>122.77</ele>
        <time>2013-12-15T09:38:03Z</time>
      </trkpt>
      <trkpt lat="49.65457" lon="3.13753">
        <ele>123.73</ele>
        <time>2013-12-15T09:38:12Z</time>
      </trkpt>
      <trkpt lat="49.65438" lon="3.13777">
        <ele>126.31</ele>
        <time>2013-12-15T09:38:26Z</time>
      </trkpt>
      <trkpt lat="49.6542" lon="3.13784">
        <ele>128.36</ele>
        <time>2013-12-15T09:38:39Z</time>
      </trkpt>
      <trkpt lat="49.65401" lon="3.13804">
        <ele>132.17</ele>
        <time>2013-12-15T09:38:57Z</time>
      </trkpt>
      <trkpt lat="49.65382" lon="3.13813">
        <ele>135.33</ele>
        <time>2013-12-15T09:39:15Z</time>
      </trkpt>
      <trkpt lat="49.65363" lon="3.13824">
        <ele>138.95</ele>
        <time>2013-12-15T09:39:33Z</time>
      </trkpt>
      <trkpt lat="49.65344" lon="3.13846">
        <ele>145.1</ele>
        <time>2013-12-15T09:39:51Z</time>
      </trkpt>
      <trkpt lat="49.65322" lon="3.1385">
        <ele>148.16</ele>
        <time>2013-12-15T09:40:10Z</time>
      </trkpt>
      <trkpt lat="49.65305" lon="3.13862">
        <ele>151.7</ele>
        <time>2013-12-15T09:40:24Z</time>
      </trkpt>
      <trkpt lat="49.65286" lon="3.1387">
        <ele>154.43</ele>
        <time>2013-12-15T09:40:42Z</time>
      </trkpt>
      <trkpt lat="49.65264" lon="3.13873">
        <ele>156.3</ele>
        <time>2013-12-15T09:41:05Z</time>
      </trkpt>
      <trkpt lat="49.65245" lon="3.13881">
        <ele>158.42</ele>
        <time>2013-12-15T09:41:44Z</time>
      </trkpt>
      <trkpt lat="49.65223" lon="3.13887">
        <ele>159.58</ele>
        <time>2013-12-15T09:42:11Z</time>
      </trkpt>
      <trkpt lat="49.65205" lon="3.13896">
        <ele>161.1</ele>
        <time>2013-12-15T09:43:02Z</time>
      </trkpt>
      <trkpt lat="49.65189" lon="3.13915">
        <ele>164.46</ele>
        <time>2013-12-15T09:43:25Z</time>
      </trkpt>
      <trkpt lat="49.6517" lon="3.13933">
        <ele>165.76</ele>
        <time>2013-12-15T09:43:52Z</time>
      </trkpt>
      <trkpt lat="49.6515" lon="3.13942">
        <ele>166.74</ele>
        <time>2013-12-15T09:44:14Z</time>
      </trkpt>
      <trkpt lat="49.65128" lon="3.13943">
        <ele>167.52</ele>
        <time>2013-12-15T09:44:37Z</time>
      </trkpt>
      <trkpt lat="49.65109" lon="3.13963">
        <ele>168.91</ele>
        <time>2013-12-15T09:44:55Z</time>
      </trkpt>
      <trkpt lat="49.65091" lon="3.13964">
        <ele>169.46</ele>
        <time>2013-12-15T09:46:52Z</time>
      </trkpt>
      <trkpt lat="49.65068" lon="3.13958">
        <ele>170.42</ele>
        <time>2013-12-15T09:50:26Z</time>
      </trkpt>
      <trkpt lat="49.65046" lon="3.13944">
        <ele>171.21</ele>
        <time>2013-12-15T09:50:35Z</time>
      </trkpt>
      <trkpt lat="49.65023" lon="3.13929">
        <ele>172.07</ele>
        <time>2013-12-15T09:50:44Z</time>
      </trkpt>
      <trkpt lat="49.64995" lon="3.13912">
        <ele>173.21</ele>
        <time>2013-12-15T09:50:53Z</time>
      </trkpt>
      <trkpt lat="49.64969" lon="3.139">
        <ele>174.69</ele>
        <time>2013-12-15T09:51:02Z</time>
      </trkpt>
      <trkpt lat="49.64947" lon="3.13894">
        <ele>176.19</ele>
        <time>2013-12-15T09:51:11Z</time>
      </trkpt>
      <trkpt lat="49.64921" lon="3.13877">
        <ele>177.74</ele>
        <time>2013-12-15T09:51:20Z</time>
      </trkpt>
      <trkpt lat="49.64893" lon="3.1386">
        <ele>177.19</ele>
        <time>2013-12-15T09:51:28Z</time>
      </trkpt>
      <trkpt lat="49.64876" lon="3.13853">
        <ele>176.75</ele>
        <time>2013-12-15T09:51:33Z</time>
      </trkpt>
      <trkpt lat="49.64858" lon="3.13845">
        <ele>176.37</ele>
        <time>2013-12-15T09:51:38Z</time>
      </trkpt>
      <trkpt lat="49.6484" lon="3.13836">
        <ele>176.09</ele>
        <time>2013-12-15T09:51:43Z</time>
      </trkpt>
      <trkpt lat="49.64814" lon="3.13819">
        <ele>175.53</ele>
        <time>2013-12-15T09:51:51Z</time>
      </trkpt>
      <trkpt lat="49.64796" lon="3.13808">
        <ele>175.09</ele>
        <time>2013-12-15T09:51:56Z</time>
      </trkpt>
      <trkpt lat="49.64776" lon="3.13797">
        <ele>174.63</ele>
        <time>2013-12-15T09:52:01Z</time>
      </trkpt>
      <trkpt lat="49.64759" lon="3.13788">
        <ele>174.2</ele>
        <time>2013-12-15T09:52:05Z</time>
      </trkpt>
      <trkpt lat="49.64719" lon="3.13764">
        <ele>172.83</ele>
        <time>2013-12-15T09:52:14Z</time>
      </trkpt>
      <trkpt lat="49.64697" lon="3.13749">
        <ele>172.11</ele>
        <time>2013-12-15T09:52:19Z</time>
      </trkpt>
      <trkpt lat="49.64679" lon="3.13739">
        <ele>171.65</ele>
        <time>2013-12-15T09:52:23Z</time>
      </trkpt>
      <trkpt lat="49.64656" lon="3.13728">
        <ele>171.92</ele>
        <time>2013-12-15T09:52:28Z</time>
      </trkpt>
      <trkpt lat="49.64636" lon="3.13721">
        <ele>172.8</ele>
        <time>2013-12-15T09:52:33Z</time>
      </trkpt>
      <trkpt lat="49.64614" lon="3.1371">
        <ele>173.87</ele>
        <time>2013-12-15T09:52:38Z</time>
      </trkpt>
      <trkpt lat="49.64592" lon="3.13701">
        <ele>174.85</ele>
        <time>2013-12-15T09:52:43Z</time>
      </trkpt>
      <trkpt lat="49.64567" lon="3.13685">
        <ele>175.56</ele>
        <time>2013-12-15T09:52:51Z</time>
      </trkpt>
      <trkpt lat="49.64537" lon="3.13656">
        <ele>176.31</ele>
        <time>2013-12-15T09:53:01Z</time>
      </trkpt>
      <trkpt lat="49.64511" lon="3.13622">
        <ele>177.15</ele>
        <time>2013-12-15T09:53:10Z</time>
      </trkpt>
      <trkpt lat="49.64484" lon="3.13597">
        <ele>177.62</ele>
        <time>2013-12-15T09:53:20Z</time>
      </trkpt>
      <trkpt lat="49.64469" lon="3.13577">
        <ele>178.18</ele>
        <time>2013-12-15T09:53:29Z</time>
      </trkpt>
      <trkpt lat="49.64448" lon="3.13559">
        <ele>178.77</ele>
        <time>2013-12-15T09:53:38Z</time>
      </trkpt>
      <trkpt lat="49.64422" lon="3.13546">
        <ele>179.3</ele>
        <time>2013-12-15T09:53:47Z</time>
      </trkpt>
      <trkpt lat="49.64391" lon="3.13537">
        <ele>179.63</ele>
        <time>2013-12-15T09:53:56Z</time>
      </trkpt>
      <trkpt lat="49.64357" lon="3.13533">
        <ele>179.66</ele>
        <time>2013-12-15T09:54:06Z</time>
      </trkpt>
      <trkpt lat="49.64309" lon="3.13543">
        <ele>178.3</ele>
        <time>2013-12-15T09:54:15Z</time>
      </trkpt>
      <trkpt lat="49.64279" lon="3.13544">
        <ele>176.85</ele>
        <time>2013-12-15T09:54:20Z</time>
      </trkpt>
      <trkpt lat="49.64256" lon="3.13545">
        <ele>175.74</ele>
        <time>2013-12-15T09:54:25Z</time>
      </trkpt>
      <trkpt lat="49.64223" lon="3.13542">
        <ele>176.61</ele>
        <time>2013-12-15T09:54:33Z</time>
      </trkpt>
      <trkpt lat="49.64205" lon="3.13532">
        <ele>177.6</ele>
        <time>2013-12-15T09:54:38Z</time>
      </trkpt>
      <trkpt lat="49.64186" lon="3.13525">
        <ele>178.56</ele>
        <time>2013-12-15T09:54:43Z</time>
      </trkpt>
      <trkpt lat="49.64152" lon="3.13527">
        <ele>179.52</ele>
        <time>2013-12-15T09:54:51Z</time>
      </trkpt>
      <trkpt lat="49.64131" lon="3.13539">
        <ele>179.67</ele>
        <time>2013-12-15T09:54:56Z</time>
      </trkpt>
      <trkpt lat="49.6411" lon="3.13543">
        <ele>180.03</ele>
        <time>2013-12-15T09:55:01Z</time>
      </trkpt>
      <trkpt lat="49.64089" lon="3.13541">
        <ele>180.4</ele>
        <time>2013-12-15T09:55:06Z</time>
      </trkpt>
      <trkpt lat="49.64052" lon="3.13537">
        <ele>179.99</ele>
        <time>2013-12-15T09:55:15Z</time>
      </trkpt>
      <trkpt lat="49.64031" lon="3.13529">
        <ele>179.88</ele>
        <time>2013-12-15T09:55:20Z</time>
      </trkpt>
      <trkpt lat="49.64012" lon="3.1352">
        <ele>180.06</ele>
        <time>2013-12-15T09:55:25Z</time>
      </trkpt>
      <trkpt lat="49.63993" lon="3.1351">
        <ele>179.87</ele>
        <time>2013-12-15T09:55:29Z</time>
      </trkpt>
      <trkpt lat="49.63973" lon="3.13503">
        <ele>178.57</ele>
        <time>2013-12-15T09:55:34Z</time>
      </trkpt>
      <trkpt lat="49.63948" lon="3.13502">
        <ele>176.52</ele>
        <time>2013-12-15T09:55:44Z</time>
      </trkpt>
      <trkpt lat="49.63926" lon="3.13503">
        <ele>174.61</ele>
        <time>2013-12-15T09:56:08Z</time>
      </trkpt>
      <trkpt lat="49.63945" lon="3.13511">
        <ele>175.71</ele>
        <time>2013-12-15T10:01:22Z</time>
      </trkpt>
      <trkpt lat="49.63968" lon="3.13522">
        <ele>177.03</ele>
        <time>2013-12-15T10:01:37Z</time>
      </trkpt>
      <trkpt lat="49.63991" lon="3.13531">
        <ele>178.64</ele>
        <time>2013-12-15T10:01:46Z</time>
      </trkpt>
      <trkpt lat="49.64009" lon="3.13531">
        <ele>179.62</ele>
        <time>2013-12-15T10:02:01Z</time>
      </trkpt>
      <trkpt lat="49.63985" lon="3.13522">
        <ele>178.63</ele>
        <time>2013-12-15T10:02:10Z</time>
      </trkpt>
      <trkpt lat="49.63947" lon="3.13506">
        <ele>176.15</ele>
        <time>2013-12-15T10:02:19Z</time>
      </trkpt>
      <trkpt lat="49.63926" lon="3.13498">
        <ele>174.81</ele>
        <time>2013-12-15T10:02:27Z</time>
      </trkpt>
      <trkpt lat="49.63892" lon="3.13493">
        <ele>173.72</ele>
        <time>2013-12-15T10:03:24Z</time>
      </trkpt>
      <trkpt lat="49.63863" lon="3.13503">
        <ele>172.44</ele>
        <time>2013-12-15T10:03:29Z</time>
      </trkpt>
      <trkpt lat="49.63833" lon="3.1352">
        <ele>170.11</ele>
        <time>2013-12-15T10:03:34Z</time>
      </trkpt>
      <trkpt lat="49.63813" lon="3.13537">
        <ele>168.94</ele>
        <time>2013-12-15T10:03:38Z</time>
      </trkpt>
      <trkpt lat="49.63799" lon="3.13556">
        <ele>167.44</ele>
        <time>2013-12-15T10:03:42Z</time>
      </trkpt>
      <trkpt lat="49.63779" lon="3.13572">
        <ele>166.39</ele>
        <time>2013-12-15T10:04:04Z</time>
      </trkpt>
      <trkpt lat="49.63757" lon="3.13592">
        <ele>164.91</ele>
        <time>2013-12-15T10:04:17Z</time>
      </trkpt>
      <trkpt lat="49.6374" lon="3.13608">
        <ele>163.76</ele>
        <time>2013-12-15T10:04:26Z</time>
      </trkpt>
      <trkpt lat="49.63723" lon="3.1362">
        <ele>163.35</ele>
        <time>2013-12-15T10:04:35Z</time>
      </trkpt>
      <trkpt lat="49.63701" lon="3.13639">
        <ele>163.33</ele>
        <time>2013-12-15T10:04:45Z</time>
      </trkpt>
      <trkpt lat="49.63681" lon="3.13633">
        <ele>164.89</ele>
        <time>2013-12-15T10:04:59Z</time>
      </trkpt>
      <trkpt lat="49.63658" lon="3.13614">
        <ele>166.27</ele>
        <time>2013-12-15T10:05:08Z</time>
      </trkpt>
      <trkpt lat="49.63636" lon="3.13596">
        <ele>166.7</ele>
        <time>2013-12-15T10:05:17Z</time>
      </trkpt>
      <trkpt lat="49.6362" lon="3.13576">
        <ele>167.16</ele>
        <time>2013-12-15T10:05:26Z</time>
      </trkpt>
      <trkpt lat="49.63633" lon="3.13541">
        <ele>168.11</ele>
        <time>2013-12-15T10:05:40Z</time>
      </trkpt>
      <trkpt lat="49.63644" lon="3.13516">
        <ele>168.98</ele>
        <time>2013-12-15T10:05:49Z</time>
      </trkpt>
      <trkpt lat="49.63658" lon="3.13491">
        <ele>170.2</ele>
        <time>2013-12-15T10:05:59Z</time>
      </trkpt>
      <trkpt lat="49.63675" lon="3.13457">
        <ele>172.45</ele>
        <time>2013-12-15T10:06:13Z</time>
      </trkpt>
      <trkpt lat="49.63689" lon="3.13432">
        <ele>174.32</ele>
        <time>2013-12-15T10:06:23Z</time>
      </trkpt>
      <trkpt lat="49.63703" lon="3.134">
        <ele>175.83</ele>
        <time>2013-12-15T10:06:32Z</time>
      </trkpt>
      <trkpt lat="49.63717" lon="3.13371">
        <ele>176.73</ele>
        <time>2013-12-15T10:06:41Z</time>
      </trkpt>
      <trkpt lat="49.63732" lon="3.13351">
        <ele>177.75</ele>
        <time>2013-12-15T10:06:50Z</time>
      </trkpt>
      <trkpt lat="49.63744" lon="3.13326">
        <ele>178.65</ele>
        <time>2013-12-15T10:06:59Z</time>
      </trkpt>
      <trkpt lat="49.63758" lon="3.133">
        <ele>179.19</ele>
        <time>2013-12-15T10:07:07Z</time>
      </trkpt>
      <trkpt lat="49.63775" lon="3.13264">
        <ele>179.6</ele>
        <time>2013-12-15T10:07:17Z</time>
      </trkpt>
      <trkpt lat="49.63789" lon="3.13233">
        <ele>179.62</ele>
        <time>2013-12-15T10:07:26Z</time>
      </trkpt>
      <trkpt lat="49.63804" lon="3.13198">
        <ele>179.45</ele>
        <time>2013-12-15T10:07:36Z</time>
      </trkpt>
      <trkpt lat="49.63815" lon="3.13164">
        <ele>179.33</ele>
        <time>2013-12-15T10:07:45Z</time>
      </trkpt>
      <trkpt lat="49.63826" lon="3.13129">
        <ele>179.78</ele>
        <time>2013-12-15T10:07:54Z</time>
      </trkpt>
      <trkpt lat="49.6384" lon="3.13097">
        <ele>180.11</ele>
        <time>2013-12-15T10:08:03Z</time>
      </trkpt>
      <trkpt lat="49.6385" lon="3.13071">
        <ele>180.02</ele>
        <time>2013-12-15T10:08:12Z</time>
      </trkpt>
      <trkpt lat="49.6386" lon="3.13046">
        <ele>179.73</ele>
        <time>2013-12-15T10:08:21Z</time>
      </trkpt>
      <trkpt lat="49.63868" lon="3.13014">
        <ele>179.23</ele>
        <time>2013-12-15T10:08:30Z</time>
      </trkpt>
      <trkpt lat="49.63879" lon="3.12974">
        <ele>178.09</ele>
        <time>2013-12-15T10:08:39Z</time>
      </trkpt>
      <trkpt lat="49.63888" lon="3.12937">
        <ele>176.97</ele>
        <time>2013-12-15T10:08:48Z</time>
      </trkpt>
      <trkpt lat="49.63903" lon="3.12897">
        <ele>175.92</ele>
        <time>2013-12-15T10:08:57Z</time>
      </trkpt>
      <trkpt lat="49.63917" lon="3.12852">
        <ele>174.66</ele>
        <time>2013-12-15T10:09:06Z</time>
      </trkpt>
      <trkpt lat="49.63927" lon="3.12819">
        <ele>173.17</ele>
        <time>2013-12-15T10:09:11Z</time>
      </trkpt>
      <trkpt lat="49.63928" lon="3.12784">
        <ele>171.49</ele>
        <time>2013-12-15T10:09:15Z</time>
      </trkpt>
      <trkpt lat="49.63929" lon="3.12735">
        <ele>168.99</ele>
        <time>2013-12-15T10:09:20Z</time>
      </trkpt>
      <trkpt lat="49.63926" lon="3.12694">
        <ele>166.69</ele>
        <time>2013-12-15T10:09:24Z</time>
      </trkpt>
      <trkpt lat="49.63925" lon="3.12648">
        <ele>163.37</ele>
        <time>2013-12-15T10:09:29Z</time>
      </trkpt>
      <trkpt lat="49.63922" lon="3.12611">
        <ele>159.8</ele>
        <time>2013-12-15T10:09:34Z</time>
      </trkpt>
      <trkpt lat="49.63922" lon="3.12581">
        <ele>157.09</ele>
        <time>2013-12-15T10:09:43Z</time>
      </trkpt>
      <trkpt lat="49.63933" lon="3.12554">
        <ele>155.62</ele>
        <time>2013-12-15T10:10:19Z</time>
      </trkpt>
      <trkpt lat="49.63922" lon="3.1253">
        <ele>152.91</ele>
        <time>2013-12-15T10:10:34Z</time>
      </trkpt>
      <trkpt lat="49.63917" lon="3.125">
        <ele>150.04</ele>
        <time>2013-12-15T10:10:43Z</time>
      </trkpt>
      <trkpt lat="49.63911" lon="3.12466">
        <ele>148.69</ele>
        <time>2013-12-15T10:10:51Z</time>
      </trkpt>
      <trkpt lat="49.63914" lon="3.12415">
        <ele>146.74</ele>
        <time>2013-12-15T10:11:01Z</time>
      </trkpt>
      <trkpt lat="49.63932" lon="3.12372">
        <ele>143.48</ele>
        <time>2013-12-15T10:11:10Z</time>
      </trkpt>
      <trkpt lat="49.63944" lon="3.12348">
        <ele>140.96</ele>
        <time>2013-12-15T10:11:14Z</time>
      </trkpt>
      <trkpt lat="49.63964" lon="3.12321">
        <ele>137.64</ele>
        <time>2013-12-15T10:11:19Z</time>
      </trkpt>
      <trkpt lat="49.63981" lon="3.12307">
        <ele>135.92</ele>
        <time>2013-12-15T10:11:23Z</time>
      </trkpt>
      <trkpt lat="49.64" lon="3.12285">
        <ele>133.38</ele>
        <time>2013-12-15T10:11:32Z</time>
      </trkpt>
      <trkpt lat="49.64027" lon="3.12259">
        <ele>128.62</ele>
        <time>2013-12-15T10:11:50Z</time>
      </trkpt>
      <trkpt lat="49.64045" lon="3.12253">
        <ele>126.45</ele>
        <time>2013-12-15T10:12:04Z</time>
      </trkpt>
      <trkpt lat="49.64062" lon="3.12243">
        <ele>124.17</ele>
        <time>2013-12-15T10:12:08Z</time>
      </trkpt>
      <trkpt lat="49.64092" lon="3.12233">
        <ele>121.3</ele>
        <time>2013-12-15T10:12:13Z</time>
      </trkpt>
      <trkpt lat="49.6412" lon="3.12227">
        <ele>119.42</ele>
        <time>2013-12-15T10:12:17Z</time>
      </trkpt>
      <trkpt lat="49.64154" lon="3.12217">
        <ele>117.55</ele>
        <time>2013-12-15T10:12:21Z</time>
      </trkpt>
      <trkpt lat="49.64202" lon="3.12196">
        <ele>114.91</ele>
        <time>2013-12-15T10:12:26Z</time>
      </trkpt>
      <trkpt lat="49.64252" lon="3.12172">
        <ele>111.86</ele>
        <time>2013-12-15T10:12:31Z</time>
      </trkpt>
      <trkpt lat="49.64312" lon="3.12144">
        <ele>105.75</ele>
        <time>2013-12-15T10:12:36Z</time>
      </trkpt>
      <trkpt lat="49.6436" lon="3.12119">
        <ele>102.42</ele>
        <time>2013-12-15T10:12:40Z</time>
      </trkpt>
      <trkpt lat="49.64421" lon="3.12091">
        <ele>99.27</ele>
        <time>2013-12-15T10:12:45Z</time>
      </trkpt>
      <trkpt lat="49.64476" lon="3.12064">
        <ele>99.17</ele>
        <time>2013-12-15T10:12:50Z</time>
      </trkpt>
      <trkpt lat="49.64522" lon="3.12041">
        <ele>99.12</ele>
        <time>2013-12-15T10:12:55Z</time>
      </trkpt>
      <trkpt lat="49.64558" lon="3.12022">
        <ele>98.86</ele>
        <time>2013-12-15T10:13:00Z</time>
      </trkpt>
      <trkpt lat="49.64592" lon="3.12006">
        <ele>98.84</ele>
        <time>2013-12-15T10:13:05Z</time>
      </trkpt>
      <trkpt lat="49.64616" lon="3.11991">
        <ele>99.18</ele>
        <time>2013-12-15T10:13:09Z</time>
      </trkpt>
      <trkpt lat="49.64646" lon="3.11977">
        <ele>99.35</ele>
        <time>2013-12-15T10:13:14Z</time>
      </trkpt>
      <trkpt lat="49.64672" lon="3.11962">
        <ele>99.29</ele>
        <time>2013-12-15T10:13:19Z</time>
      </trkpt>
      <trkpt lat="49.64701" lon="3.11949">
        <ele>98.64</ele>
        <time>2013-12-15T10:13:27Z</time>
      </trkpt>
      <trkpt lat="49.64733" lon="3.11933">
        <ele>98.06</ele>
        <time>2013-12-15T10:13:37Z</time>
      </trkpt>
      <trkpt lat="49.64763" lon="3.11921">
        <ele>97.57</ele>
        <time>2013-12-15T10:13:45Z</time>
      </trkpt>
      <trkpt lat="49.64784" lon="3.11917">
        <ele>97.19</ele>
        <time>2013-12-15T10:13:50Z</time>
      </trkpt>
      <trkpt lat="49.64807" lon="3.11915">
        <ele>96.66</ele>
        <time>2013-12-15T10:13:55Z</time>
      </trkpt>
      <trkpt lat="49.6483" lon="3.11881">
        <ele>96.51</ele>
        <time>2013-12-15T10:14:03Z</time>
      </trkpt>
      <trkpt lat="49.64842" lon="3.11847">
        <ele>96.74</ele>
        <time>2013-12-15T10:14:08Z</time>
      </trkpt>
      <trkpt lat="49.64852" lon="3.11816">
        <ele>97.45</ele>
        <time>2013-12-15T10:14:13Z</time>
      </trkpt>
      <trkpt lat="49.64863" lon="3.11769">
        <ele>99.24</ele>
        <time>2013-12-15T10:14:21Z</time>
      </trkpt>
      <trkpt lat="49.64871" lon="3.11744">
        <ele>100.07</ele>
        <time>2013-12-15T10:14:26Z</time>
      </trkpt>
      <trkpt lat="49.64878" lon="3.11718">
        <ele>100.38</ele>
        <time>2013-12-15T10:14:31Z</time>
      </trkpt>
      <trkpt lat="49.64889" lon="3.11677">
        <ele>100.88</ele>
        <time>2013-12-15T10:14:39Z</time>
      </trkpt>
      <trkpt lat="49.64897" lon="3.11651">
        <ele>101.14</ele>
        <time>2013-12-15T10:14:44Z</time>
      </trkpt>
      <trkpt lat="49.64904" lon="3.11625">
        <ele>101.42</ele>
        <time>2013-12-15T10:14:49Z</time>
      </trkpt>
      <trkpt lat="49.64913" lon="3.11586">
        <ele>101.93</ele>
        <time>2013-12-15T10:14:57Z</time>
      </trkpt>
      <trkpt lat="49.64918" lon="3.11559">
        <ele>102.01</ele>
        <time>2013-12-15T10:15:02Z</time>
      </trkpt>
      <trkpt lat="49.64927" lon="3.11506">
        <ele>102.11</ele>
        <time>2013-12-15T10:15:11Z</time>
      </trkpt>
      <trkpt lat="49.64931" lon="3.11479">
        <ele>102.13</ele>
        <time>2013-12-15T10:15:15Z</time>
      </trkpt>
      <trkpt lat="49.64936" lon="3.11443">
        <ele>102.07</ele>
        <time>2013-12-15T10:15:20Z</time>
      </trkpt>
      <trkpt lat="49.6494" lon="3.11415">
        <ele>102</ele>
        <time>2013-12-15T10:15:24Z</time>
      </trkpt>
      <trkpt lat="49.64944" lon="3.11386">
        <ele>102</ele>
        <time>2013-12-15T10:15:28Z</time>
      </trkpt>
      <trkpt lat="49.64948" lon="3.11353">
        <ele>102</ele>
        <time>2013-12-15T10:15:33Z</time>
      </trkpt>
      <trkpt lat="49.64952" lon="3.11322">
        <ele>102</ele>
        <time>2013-12-15T10:15:38Z</time>
      </trkpt>
      <trkpt lat="49.64958" lon="3.11287">
        <ele>102</ele>
        <time>2013-12-15T10:15:43Z</time>
      </trkpt>
      <trkpt lat="49.64963" lon="3.11259">
        <ele>102</ele>
        <time>2013-12-15T10:15:47Z</time>
      </trkpt>
      <trkpt lat="49.64968" lon="3.11231">
        <ele>102</ele>
        <time>2013-12-15T10:15:51Z</time>
      </trkpt>
      <trkpt lat="49.64973" lon="3.11198">
        <ele>102</ele>
        <time>2013-12-15T10:15:56Z</time>
      </trkpt>
      <trkpt lat="49.64982" lon="3.11141">
        <ele>102</ele>
        <time>2013-12-15T10:16:05Z</time>
      </trkpt>
      <trkpt lat="49.64985" lon="3.11099">
        <ele>102</ele>
        <time>2013-12-15T10:16:14Z</time>
      </trkpt>
      <trkpt lat="49.64991" lon="3.1107">
        <ele>102.14</ele>
        <time>2013-12-15T10:16:19Z</time>
      </trkpt>
      <trkpt lat="49.64995" lon="3.11041">
        <ele>102.48</ele>
        <time>2013-12-15T10:16:24Z</time>
      </trkpt>
      <trkpt lat="49.65" lon="3.1101">
        <ele>102.87</ele>
        <time>2013-12-15T10:16:29Z</time>
      </trkpt>
      <trkpt lat="49.65008" lon="3.10953">
        <ele>102.81</ele>
        <time>2013-12-15T10:16:38Z</time>
      </trkpt>
      <trkpt lat="49.65012" lon="3.1091">
        <ele>102.81</ele>
        <time>2013-12-15T10:16:47Z</time>
      </trkpt>
      <trkpt lat="49.65029" lon="3.10883">
        <ele>102.85</ele>
        <time>2013-12-15T10:17:00Z</time>
      </trkpt>
      <trkpt lat="49.65049" lon="3.10848">
        <ele>103.15</ele>
        <time>2013-12-15T10:17:09Z</time>
      </trkpt>
      <trkpt lat="49.65062" lon="3.10825">
        <ele>103.31</ele>
        <time>2013-12-15T10:17:14Z</time>
      </trkpt>
      <trkpt lat="49.65084" lon="3.10786">
        <ele>103.57</ele>
        <time>2013-12-15T10:17:23Z</time>
      </trkpt>
      <trkpt lat="49.651" lon="3.10751">
        <ele>103.78</ele>
        <time>2013-12-15T10:17:32Z</time>
      </trkpt>
      <trkpt lat="49.65112" lon="3.10728">
        <ele>103.48</ele>
        <time>2013-12-15T10:17:41Z</time>
      </trkpt>
      <trkpt lat="49.65128" lon="3.10701">
        <ele>103.19</ele>
        <time>2013-12-15T10:17:50Z</time>
      </trkpt>
      <trkpt lat="49.65144" lon="3.10675">
        <ele>103.03</ele>
        <time>2013-12-15T10:17:59Z</time>
      </trkpt>
      <trkpt lat="49.65161" lon="3.10649">
        <ele>102.99</ele>
        <time>2013-12-15T10:18:08Z</time>
      </trkpt>
      <trkpt lat="49.65176" lon="3.10626">
        <ele>102.83</ele>
        <time>2013-12-15T10:18:17Z</time>
      </trkpt>
      <trkpt lat="49.65197" lon="3.10598">
        <ele>102.57</ele>
        <time>2013-12-15T10:18:27Z</time>
      </trkpt>
      <trkpt lat="49.65224" lon="3.10569">
        <ele>102.26</ele>
        <time>2013-12-15T10:18:37Z</time>
      </trkpt>
      <trkpt lat="49.6525" lon="3.10545">
        <ele>102</ele>
        <time>2013-12-15T10:18:46Z</time>
      </trkpt>
      <trkpt lat="49.65277" lon="3.10521">
        <ele>100.8</ele>
        <time>2013-12-15T10:18:54Z</time>
      </trkpt>
      <trkpt lat="49.65295" lon="3.10503">
        <ele>100.33</ele>
        <time>2013-12-15T10:18:59Z</time>
      </trkpt>
      <trkpt lat="49.65323" lon="3.10476">
        <ele>99.36</ele>
        <time>2013-12-15T10:19:08Z</time>
      </trkpt>
      <trkpt lat="49.65351" lon="3.1045">
        <ele>97.9</ele>
        <time>2013-12-15T10:19:17Z</time>
      </trkpt>
      <trkpt lat="49.65382" lon="3.10424">
        <ele>96.53</ele>
        <time>2013-12-15T10:19:26Z</time>
      </trkpt>
      <trkpt lat="49.65409" lon="3.10396">
        <ele>96.06</ele>
        <time>2013-12-15T10:19:35Z</time>
      </trkpt>
      <trkpt lat="49.65438" lon="3.10367">
        <ele>96.29</ele>
        <time>2013-12-15T10:19:45Z</time>
      </trkpt>
      <trkpt lat="49.65455" lon="3.10353">
        <ele>96.39</ele>
        <time>2013-12-15T10:19:50Z</time>
      </trkpt>
      <trkpt lat="49.65481" lon="3.10327">
        <ele>96.57</ele>
        <time>2013-12-15T10:19:59Z</time>
      </trkpt>
      <trkpt lat="49.6551" lon="3.10298">
        <ele>96.19</ele>
        <time>2013-12-15T10:20:09Z</time>
      </trkpt>
      <trkpt lat="49.65536" lon="3.10272">
        <ele>96.07</ele>
        <time>2013-12-15T10:20:18Z</time>
      </trkpt>
      <trkpt lat="49.65567" lon="3.10244">
        <ele>96.28</ele>
        <time>2013-12-15T10:20:28Z</time>
      </trkpt>
      <trkpt lat="49.65596" lon="3.10216">
        <ele>96.01</ele>
        <time>2013-12-15T10:20:38Z</time>
      </trkpt>
      <trkpt lat="49.65614" lon="3.102">
        <ele>95.73</ele>
        <time>2013-12-15T10:20:43Z</time>
      </trkpt>
      <trkpt lat="49.65642" lon="3.10171">
        <ele>95.52</ele>
        <time>2013-12-15T10:20:52Z</time>
      </trkpt>
      <trkpt lat="49.65658" lon="3.10155">
        <ele>95.2</ele>
        <time>2013-12-15T10:20:57Z</time>
      </trkpt>
      <trkpt lat="49.65674" lon="3.1014">
        <ele>94.85</ele>
        <time>2013-12-15T10:21:02Z</time>
      </trkpt>
      <trkpt lat="49.65703" lon="3.1011">
        <ele>94.43</ele>
        <time>2013-12-15T10:21:11Z</time>
      </trkpt>
      <trkpt lat="49.6572" lon="3.10094">
        <ele>94.29</ele>
        <time>2013-12-15T10:21:16Z</time>
      </trkpt>
      <trkpt lat="49.65749" lon="3.10066">
        <ele>94.01</ele>
        <time>2013-12-15T10:21:25Z</time>
      </trkpt>
      <trkpt lat="49.65777" lon="3.10038">
        <ele>93.06</ele>
        <time>2013-12-15T10:21:34Z</time>
      </trkpt>
      <trkpt lat="49.65805" lon="3.10013">
        <ele>92.48</ele>
        <time>2013-12-15T10:21:43Z</time>
      </trkpt>
      <trkpt lat="49.65831" lon="3.09991">
        <ele>92.15</ele>
        <time>2013-12-15T10:21:52Z</time>
      </trkpt>
      <trkpt lat="49.65848" lon="3.09979">
        <ele>91.79</ele>
        <time>2013-12-15T10:22:05Z</time>
      </trkpt>
      <trkpt lat="49.65876" lon="3.09952">
        <ele>91.34</ele>
        <time>2013-12-15T10:22:39Z</time>
      </trkpt>
      <trkpt lat="49.65901" lon="3.09922">
        <ele>91.24</ele>
        <time>2013-12-15T10:22:49Z</time>
      </trkpt>
      <trkpt lat="49.6592" lon="3.09901">
        <ele>91.46</ele>
        <time>2013-12-15T10:22:57Z</time>
      </trkpt>
      <trkpt lat="49.65942" lon="3.09879">
        <ele>92.38</ele>
        <time>2013-12-15T10:23:06Z</time>
      </trkpt>
      <trkpt lat="49.6596" lon="3.09857">
        <ele>93.11</ele>
        <time>2013-12-15T10:23:16Z</time>
      </trkpt>
      <trkpt lat="49.65979" lon="3.09836">
        <ele>93.71</ele>
        <time>2013-12-15T10:23:25Z</time>
      </trkpt>
      <trkpt lat="49.65995" lon="3.09818">
        <ele>93.95</ele>
        <time>2013-12-15T10:23:34Z</time>
      </trkpt>
      <trkpt lat="49.66014" lon="3.09797">
        <ele>93.81</ele>
        <time>2013-12-15T10:23:44Z</time>
      </trkpt>
      <trkpt lat="49.66034" lon="3.09776">
        <ele>93.75</ele>
        <time>2013-12-15T10:23:53Z</time>
      </trkpt>
      <trkpt lat="49.66058" lon="3.09754">
        <ele>93.94</ele>
        <time>2013-12-15T10:24:03Z</time>
      </trkpt>
      <trkpt lat="49.66084" lon="3.09725">
        <ele>94.29</ele>
        <time>2013-12-15T10:24:13Z</time>
      </trkpt>
      <trkpt lat="49.66108" lon="3.09701">
        <ele>94.18</ele>
        <time>2013-12-15T10:24:21Z</time>
      </trkpt>
      <trkpt lat="49.66123" lon="3.09685">
        <ele>94.21</ele>
        <time>2013-12-15T10:24:26Z</time>
      </trkpt>
      <trkpt lat="49.66145" lon="3.0966">
        <ele>94.28</ele>
        <time>2013-12-15T10:24:35Z</time>
      </trkpt>
      <trkpt lat="49.66157" lon="3.09633">
        <ele>94.38</ele>
        <time>2013-12-15T10:24:44Z</time>
      </trkpt>
      <trkpt lat="49.66158" lon="3.09588">
        <ele>94.76</ele>
        <time>2013-12-15T10:24:53Z</time>
      </trkpt>
      <trkpt lat="49.66158" lon="3.09546">
        <ele>93.89</ele>
        <time>2013-12-15T10:25:02Z</time>
      </trkpt>
      <trkpt lat="49.6616" lon="3.09504">
        <ele>92.94</ele>
        <time>2013-12-15T10:25:11Z</time>
      </trkpt>
      <trkpt lat="49.66158" lon="3.09456">
        <ele>91.69</ele>
        <time>2013-12-15T10:25:20Z</time>
      </trkpt>
      <trkpt lat="49.66174" lon="3.09427">
        <ele>91.26</ele>
        <time>2013-12-15T10:25:29Z</time>
      </trkpt>
      <trkpt lat="49.66184" lon="3.09394">
        <ele>90.23</ele>
        <time>2013-12-15T10:25:39Z</time>
      </trkpt>
      <trkpt lat="49.66185" lon="3.09357">
        <ele>89</ele>
        <time>2013-12-15T10:25:44Z</time>
      </trkpt>
      <trkpt lat="49.66184" lon="3.09315">
        <ele>87.5</ele>
        <time>2013-12-15T10:25:49Z</time>
      </trkpt>
      <trkpt lat="49.66182" lon="3.09278">
        <ele>86.08</ele>
        <time>2013-12-15T10:25:53Z</time>
      </trkpt>
      <trkpt lat="49.6618" lon="3.09239">
        <ele>84.73</ele>
        <time>2013-12-15T10:25:57Z</time>
      </trkpt>
      <trkpt lat="49.66186" lon="3.09186">
        <ele>83.45</ele>
        <time>2013-12-15T10:26:02Z</time>
      </trkpt>
      <trkpt lat="49.66197" lon="3.09143">
        <ele>82.52</ele>
        <time>2013-12-15T10:26:06Z</time>
      </trkpt>
      <trkpt lat="49.6621" lon="3.09098">
        <ele>81.77</ele>
        <time>2013-12-15T10:26:11Z</time>
      </trkpt>
      <trkpt lat="49.66234" lon="3.09086">
        <ele>81.85</ele>
        <time>2013-12-15T10:26:15Z</time>
      </trkpt>
      <trkpt lat="49.66268" lon="3.09082">
        <ele>82.19</ele>
        <time>2013-12-15T10:26:20Z</time>
      </trkpt>
      <trkpt lat="49.66303" lon="3.09077">
        <ele>82.5</ele>
        <time>2013-12-15T10:26:25Z</time>
      </trkpt>
      <trkpt lat="49.66329" lon="3.09072">
        <ele>82.69</ele>
        <time>2013-12-15T10:26:29Z</time>
      </trkpt>
      <trkpt lat="49.66354" lon="3.0907">
        <ele>82.68</ele>
        <time>2013-12-15T10:26:33Z</time>
      </trkpt>
      <trkpt lat="49.66383" lon="3.09065">
        <ele>82.55</ele>
        <time>2013-12-15T10:26:38Z</time>
      </trkpt>
      <trkpt lat="49.66404" lon="3.09058">
        <ele>82.39</ele>
        <time>2013-12-15T10:26:42Z</time>
      </trkpt>
      <trkpt lat="49.66427" lon="3.09051">
        <ele>81.94</ele>
        <time>2013-12-15T10:26:47Z</time>
      </trkpt>
      <trkpt lat="49.66447" lon="3.09043">
        <ele>81.29</ele>
        <time>2013-12-15T10:26:51Z</time>
      </trkpt>
      <trkpt lat="49.66473" lon="3.09033">
        <ele>80.58</ele>
        <time>2013-12-15T10:26:56Z</time>
      </trkpt>
      <trkpt lat="49.66506" lon="3.09022">
        <ele>79.73</ele>
        <time>2013-12-15T10:27:01Z</time>
      </trkpt>
      <trkpt lat="49.66537" lon="3.0901">
        <ele>78.28</ele>
        <time>2013-12-15T10:27:05Z</time>
      </trkpt>
      <trkpt lat="49.66572" lon="3.08996">
        <ele>76.42</ele>
        <time>2013-12-15T10:27:09Z</time>
      </trkpt>
      <trkpt lat="49.66618" lon="3.08978">
        <ele>73.7</ele>
        <time>2013-12-15T10:27:14Z</time>
      </trkpt>
      <trkpt lat="49.66666" lon="3.08956">
        <ele>71.58</ele>
        <time>2013-12-15T10:27:19Z</time>
      </trkpt>
      <trkpt lat="49.66703" lon="3.08921">
        <ele>69.39</ele>
        <time>2013-12-15T10:27:23Z</time>
      </trkpt>
      <trkpt lat="49.6675" lon="3.08875">
        <ele>66.03</ele>
        <time>2013-12-15T10:27:28Z</time>
      </trkpt>
      <trkpt lat="49.6679" lon="3.08867">
        <ele>67.23</ele>
        <time>2013-12-15T10:27:32Z</time>
      </trkpt>
      <trkpt lat="49.66833" lon="3.08857">
        <ele>68.71</ele>
        <time>2013-12-15T10:27:37Z</time>
      </trkpt>
      <trkpt lat="49.66859" lon="3.08891">
        <ele>70.45</ele>
        <time>2013-12-15T10:27:41Z</time>
      </trkpt>
      <trkpt lat="49.66861" lon="3.08951">
        <ele>69.78</ele>
        <time>2013-12-15T10:27:46Z</time>
      </trkpt>
      <trkpt lat="49.66861" lon="3.08999">
        <ele>69.03</ele>
        <time>2013-12-15T10:27:51Z</time>
      </trkpt>
      <trkpt lat="49.66861" lon="3.09043">
        <ele>68.99</ele>
        <time>2013-12-15T10:27:56Z</time>
      </trkpt>
      <trkpt lat="49.6686" lon="3.09086">
        <ele>68.93</ele>
        <time>2013-12-15T10:28:01Z</time>
      </trkpt>
      <trkpt lat="49.66861" lon="3.0912">
        <ele>68.41</ele>
        <time>2013-12-15T10:28:05Z</time>
      </trkpt>
      <trkpt lat="49.66862" lon="3.0916">
        <ele>67.79</ele>
        <time>2013-12-15T10:28:10Z</time>
      </trkpt>
      <trkpt lat="49.66865" lon="3.09189">
        <ele>67.39</ele>
        <time>2013-12-15T10:28:14Z</time>
      </trkpt>
      <trkpt lat="49.66872" lon="3.09223">
        <ele>66.94</ele>
        <time>2013-12-15T10:28:19Z</time>
      </trkpt>
      <trkpt lat="49.66891" lon="3.09266">
        <ele>66.75</ele>
        <time>2013-12-15T10:28:27Z</time>
      </trkpt>
      <trkpt lat="49.66904" lon="3.0929">
        <ele>66.92</ele>
        <time>2013-12-15T10:28:32Z</time>
      </trkpt>
      <trkpt lat="49.66918" lon="3.09315">
        <ele>67.02</ele>
        <time>2013-12-15T10:28:37Z</time>
      </trkpt>
      <trkpt lat="49.66939" lon="3.09362">
        <ele>67.46</ele>
        <time>2013-12-15T10:28:46Z</time>
      </trkpt>
      <trkpt lat="49.66955" lon="3.09409">
        <ele>68.29</ele>
        <time>2013-12-15T10:28:55Z</time>
      </trkpt>
      <trkpt lat="49.66966" lon="3.09463">
        <ele>68.76</ele>
        <time>2013-12-15T10:29:04Z</time>
      </trkpt>
      <trkpt lat="49.66971" lon="3.09495">
        <ele>68.96</ele>
        <time>2013-12-15T10:29:09Z</time>
      </trkpt>
      <trkpt lat="49.66977" lon="3.09526">
        <ele>69.09</ele>
        <time>2013-12-15T10:29:14Z</time>
      </trkpt>
      <trkpt lat="49.66984" lon="3.09556">
        <ele>69.3</ele>
        <time>2013-12-15T10:29:19Z</time>
      </trkpt>
      <trkpt lat="49.66993" lon="3.09604">
        <ele>69.2</ele>
        <time>2013-12-15T10:29:27Z</time>
      </trkpt>
      <trkpt lat="49.66999" lon="3.09635">
        <ele>68.73</ele>
        <time>2013-12-15T10:29:32Z</time>
      </trkpt>
      <trkpt lat="49.67007" lon="3.09665">
        <ele>68.11</ele>
        <time>2013-12-15T10:29:37Z</time>
      </trkpt>
      <trkpt lat="49.67045" lon="3.09682">
        <ele>68.64</ele>
        <time>2013-12-15T10:29:46Z</time>
      </trkpt>
      <trkpt lat="49.67064" lon="3.09685">
        <ele>68.93</ele>
        <time>2013-12-15T10:29:50Z</time>
      </trkpt>
      <trkpt lat="49.67087" lon="3.09687">
        <ele>69.31</ele>
        <time>2013-12-15T10:29:55Z</time>
      </trkpt>
      <trkpt lat="49.67106" lon="3.09688">
        <ele>69.66</ele>
        <time>2013-12-15T10:29:59Z</time>
      </trkpt>
      <trkpt lat="49.67129" lon="3.09688">
        <ele>70.07</ele>
        <time>2013-12-15T10:30:04Z</time>
      </trkpt>
      <trkpt lat="49.67152" lon="3.09688">
        <ele>70.49</ele>
        <time>2013-12-15T10:30:09Z</time>
      </trkpt>
      <trkpt lat="49.67175" lon="3.09689">
        <ele>70.91</ele>
        <time>2013-12-15T10:30:14Z</time>
      </trkpt>
      <trkpt lat="49.67198" lon="3.09693">
        <ele>71.32</ele>
        <time>2013-12-15T10:30:19Z</time>
      </trkpt>
      <trkpt lat="49.67217" lon="3.09703">
        <ele>71.51</ele>
        <time>2013-12-15T10:30:23Z</time>
      </trkpt>
      <trkpt lat="49.67231" lon="3.09723">
        <ele>71.36</ele>
        <time>2013-12-15T10:30:27Z</time>
      </trkpt>
      <trkpt lat="49.67247" lon="3.09753">
        <ele>70.99</ele>
        <time>2013-12-15T10:30:32Z</time>
      </trkpt>
      <trkpt lat="49.67263" lon="3.09785">
        <ele>71.89</ele>
        <time>2013-12-15T10:30:37Z</time>
      </trkpt>
      <trkpt lat="49.67276" lon="3.09811">
        <ele>72.64</ele>
        <time>2013-12-15T10:30:41Z</time>
      </trkpt>
      <trkpt lat="49.67288" lon="3.09836">
        <ele>73.36</ele>
        <time>2013-12-15T10:30:45Z</time>
      </trkpt>
      <trkpt lat="49.67303" lon="3.09866">
        <ele>74.14</ele>
        <time>2013-12-15T10:30:50Z</time>
      </trkpt>
      <trkpt lat="49.67319" lon="3.09897">
        <ele>75.11</ele>
        <time>2013-12-15T10:30:55Z</time>
      </trkpt>
      <trkpt lat="49.67331" lon="3.09922">
        <ele>76.07</ele>
        <time>2013-12-15T10:30:59Z</time>
      </trkpt>
      <trkpt lat="49.67343" lon="3.09947">
        <ele>77.91</ele>
        <time>2013-12-15T10:31:03Z</time>
      </trkpt>
      <trkpt lat="49.67357" lon="3.09976">
        <ele>80.15</ele>
        <time>2013-12-15T10:31:08Z</time>
      </trkpt>
      <trkpt lat="49.67376" lon="3.10015">
        <ele>83.01</ele>
        <time>2013-12-15T10:31:16Z</time>
      </trkpt>
      <trkpt lat="49.67394" lon="3.10039">
        <ele>85.15</ele>
        <time>2013-12-15T10:31:26Z</time>
      </trkpt>
      <trkpt lat="49.67412" lon="3.10032">
        <ele>86.4</ele>
        <time>2013-12-15T10:31:39Z</time>
      </trkpt>
      <trkpt lat="49.67428" lon="3.10019">
        <ele>86.29</ele>
        <time>2013-12-15T10:31:48Z</time>
      </trkpt>
      <trkpt lat="49.6745" lon="3.09998">
        <ele>85.52</ele>
        <time>2013-12-15T10:31:57Z</time>
      </trkpt>
      <trkpt lat="49.67467" lon="3.09982">
        <ele>84.88</ele>
        <time>2013-12-15T10:32:02Z</time>
      </trkpt>
      <trkpt lat="49.67489" lon="3.09963">
        <ele>84.17</ele>
        <time>2013-12-15T10:32:07Z</time>
      </trkpt>
      <trkpt lat="49.6751" lon="3.09946">
        <ele>83.57</ele>
        <time>2013-12-15T10:32:11Z</time>
      </trkpt>
      <trkpt lat="49.67531" lon="3.09926">
        <ele>82.85</ele>
        <time>2013-12-15T10:32:15Z</time>
      </trkpt>
      <trkpt lat="49.67557" lon="3.09899">
        <ele>81.91</ele>
        <time>2013-12-15T10:32:20Z</time>
      </trkpt>
      <trkpt lat="49.67583" lon="3.09876">
        <ele>81.5</ele>
        <time>2013-12-15T10:32:25Z</time>
      </trkpt>
      <trkpt lat="49.676" lon="3.0986">
        <ele>82.04</ele>
        <time>2013-12-15T10:32:29Z</time>
      </trkpt>
      <trkpt lat="49.67617" lon="3.09846">
        <ele>82.68</ele>
        <time>2013-12-15T10:32:33Z</time>
      </trkpt>
      <trkpt lat="49.67637" lon="3.09827">
        <ele>83.49</ele>
        <time>2013-12-15T10:32:38Z</time>
      </trkpt>
      <trkpt lat="49.67653" lon="3.09812">
        <ele>83.94</ele>
        <time>2013-12-15T10:32:42Z</time>
      </trkpt>
      <trkpt lat="49.67672" lon="3.09795">
        <ele>84.32</ele>
        <time>2013-12-15T10:32:47Z</time>
      </trkpt>
      <trkpt lat="49.67688" lon="3.0978">
        <ele>84.65</ele>
        <time>2013-12-15T10:32:51Z</time>
      </trkpt>
      <trkpt lat="49.67709" lon="3.09761">
        <ele>85.21</ele>
        <time>2013-12-15T10:32:56Z</time>
      </trkpt>
      <trkpt lat="49.67726" lon="3.09746">
        <ele>85.85</ele>
        <time>2013-12-15T10:33:00Z</time>
      </trkpt>
      <trkpt lat="49.67746" lon="3.09726">
        <ele>86.81</ele>
        <time>2013-12-15T10:33:05Z</time>
      </trkpt>
      <trkpt lat="49.67761" lon="3.09711">
        <ele>87.41</ele>
        <time>2013-12-15T10:33:09Z</time>
      </trkpt>
      <trkpt lat="49.6778" lon="3.09693">
        <ele>88.07</ele>
        <time>2013-12-15T10:33:14Z</time>
      </trkpt>
      <trkpt lat="49.67795" lon="3.09677">
        <ele>88.62</ele>
        <time>2013-12-15T10:33:18Z</time>
      </trkpt>
      <trkpt lat="49.67815" lon="3.09659">
        <ele>89.41</ele>
        <time>2013-12-15T10:33:23Z</time>
      </trkpt>
      <trkpt lat="49.67831" lon="3.09645">
        <ele>90.17</ele>
        <time>2013-12-15T10:33:27Z</time>
      </trkpt>
      <trkpt lat="49.67848" lon="3.0963">
        <ele>90.69</ele>
        <time>2013-12-15T10:33:32Z</time>
      </trkpt>
      <trkpt lat="49.67865" lon="3.09616">
        <ele>91.21</ele>
        <time>2013-12-15T10:33:37Z</time>
      </trkpt>
      <trkpt lat="49.67895" lon="3.09587">
        <ele>92.38</ele>
        <time>2013-12-15T10:33:46Z</time>
      </trkpt>
      <trkpt lat="49.67911" lon="3.09571">
        <ele>93.15</ele>
        <time>2013-12-15T10:33:51Z</time>
      </trkpt>
      <trkpt lat="49.67927" lon="3.09558">
        <ele>93.7</ele>
        <time>2013-12-15T10:33:56Z</time>
      </trkpt>
      <trkpt lat="49.67942" lon="3.09542">
        <ele>94.14</ele>
        <time>2013-12-15T10:34:01Z</time>
      </trkpt>
      <trkpt lat="49.67969" lon="3.09517">
        <ele>94.72</ele>
        <time>2013-12-15T10:34:10Z</time>
      </trkpt>
      <trkpt lat="49.67993" lon="3.09493">
        <ele>95.16</ele>
        <time>2013-12-15T10:34:20Z</time>
      </trkpt>
      <trkpt lat="49.68015" lon="3.09471">
        <ele>95.46</ele>
        <time>2013-12-15T10:34:29Z</time>
      </trkpt>
      <trkpt lat="49.68039" lon="3.09447">
        <ele>95.52</ele>
        <time>2013-12-15T10:34:38Z</time>
      </trkpt>
      <trkpt lat="49.68066" lon="3.09421">
        <ele>95.34</ele>
        <time>2013-12-15T10:34:47Z</time>
      </trkpt>
      <trkpt lat="49.68101" lon="3.09391">
        <ele>94.38</ele>
        <time>2013-12-15T10:34:56Z</time>
      </trkpt>
      <trkpt lat="49.68119" lon="3.09376">
        <ele>93.73</ele>
        <time>2013-12-15T10:35:00Z</time>
      </trkpt>
      <trkpt lat="49.68141" lon="3.09366">
        <ele>92.94</ele>
        <time>2013-12-15T10:35:10Z</time>
      </trkpt>
      <trkpt lat="49.68129" lon="3.09335">
        <ele>93.37</ele>
        <time>2013-12-15T10:35:27Z</time>
      </trkpt>
      <trkpt lat="49.68114" lon="3.09309">
        <ele>94.17</ele>
        <time>2013-12-15T10:35:36Z</time>
      </trkpt>
      <trkpt lat="49.68101" lon="3.09286">
        <ele>94.93</ele>
        <time>2013-12-15T10:35:45Z</time>
      </trkpt>
      <trkpt lat="49.68086" lon="3.09256">
        <ele>95.85</ele>
        <time>2013-12-15T10:35:54Z</time>
      </trkpt>
      <trkpt lat="49.68063" lon="3.09215">
        <ele>97.07</ele>
        <time>2013-12-15T10:36:04Z</time>
      </trkpt>
      <trkpt lat="49.68039" lon="3.0917">
        <ele>98.06</ele>
        <time>2013-12-15T10:36:13Z</time>
      </trkpt>
      <trkpt lat="49.68027" lon="3.09149">
        <ele>98.5</ele>
        <time>2013-12-15T10:36:17Z</time>
      </trkpt>
      <trkpt lat="49.68015" lon="3.09126">
        <ele>99.05</ele>
        <time>2013-12-15T10:36:22Z</time>
      </trkpt>
      <trkpt lat="49.6803" lon="3.0909">
        <ele>98.89</ele>
        <time>2013-12-15T10:36:31Z</time>
      </trkpt>
      <trkpt lat="49.68046" lon="3.09069">
        <ele>98.36</ele>
        <time>2013-12-15T10:36:35Z</time>
      </trkpt>
      <trkpt lat="49.68069" lon="3.09043">
        <ele>97.53</ele>
        <time>2013-12-15T10:36:40Z</time>
      </trkpt>
      <trkpt lat="49.68089" lon="3.09022">
        <ele>96.94</ele>
        <time>2013-12-15T10:36:44Z</time>
      </trkpt>
      <trkpt lat="49.68114" lon="3.08996">
        <ele>96.61</ele>
        <time>2013-12-15T10:36:49Z</time>
      </trkpt>
      <trkpt lat="49.68137" lon="3.08973">
        <ele>96.15</ele>
        <time>2013-12-15T10:36:53Z</time>
      </trkpt>
      <trkpt lat="49.68165" lon="3.08944">
        <ele>95.36</ele>
        <time>2013-12-15T10:36:58Z</time>
      </trkpt>
      <trkpt lat="49.68193" lon="3.08917">
        <ele>95.01</ele>
        <time>2013-12-15T10:37:03Z</time>
      </trkpt>
      <trkpt lat="49.68224" lon="3.08888">
        <ele>94.77</ele>
        <time>2013-12-15T10:37:08Z</time>
      </trkpt>
      <trkpt lat="49.68253" lon="3.08858">
        <ele>94.25</ele>
        <time>2013-12-15T10:37:13Z</time>
      </trkpt>
      <trkpt lat="49.68275" lon="3.08834">
        <ele>93.71</ele>
        <time>2013-12-15T10:37:17Z</time>
      </trkpt>
      <trkpt lat="49.68297" lon="3.08814">
        <ele>93.08</ele>
        <time>2013-12-15T10:37:21Z</time>
      </trkpt>
      <trkpt lat="49.68324" lon="3.08787">
        <ele>92.06</ele>
        <time>2013-12-15T10:37:26Z</time>
      </trkpt>
      <trkpt lat="49.68355" lon="3.08761">
        <ele>91.48</ele>
        <time>2013-12-15T10:37:31Z</time>
      </trkpt>
      <trkpt lat="49.68381" lon="3.08752">
        <ele>91.61</ele>
        <time>2013-12-15T10:37:35Z</time>
      </trkpt>
      <trkpt lat="49.68413" lon="3.08766">
        <ele>92.16</ele>
        <time>2013-12-15T10:37:40Z</time>
      </trkpt>
      <trkpt lat="49.68445" lon="3.08784">
        <ele>92.41</ele>
        <time>2013-12-15T10:37:45Z</time>
      </trkpt>
      <trkpt lat="49.68478" lon="3.08801">
        <ele>92.61</ele>
        <time>2013-12-15T10:37:50Z</time>
      </trkpt>
      <trkpt lat="49.68514" lon="3.08814">
        <ele>92.5</ele>
        <time>2013-12-15T10:37:55Z</time>
      </trkpt>
      <trkpt lat="49.68553" lon="3.0882">
        <ele>91.77</ele>
        <time>2013-12-15T10:38:00Z</time>
      </trkpt>
      <trkpt lat="49.68583" lon="3.08812">
        <ele>91.25</ele>
        <time>2013-12-15T10:38:04Z</time>
      </trkpt>
      <trkpt lat="49.68614" lon="3.08804">
        <ele>91.12</ele>
        <time>2013-12-15T10:38:08Z</time>
      </trkpt>
      <trkpt lat="49.68649" lon="3.08795">
        <ele>91.03</ele>
        <time>2013-12-15T10:38:13Z</time>
      </trkpt>
      <trkpt lat="49.68678" lon="3.0878">
        <ele>91.33</ele>
        <time>2013-12-15T10:38:17Z</time>
      </trkpt>
      <trkpt lat="49.68716" lon="3.08757">
        <ele>91.89</ele>
        <time>2013-12-15T10:38:22Z</time>
      </trkpt>
      <trkpt lat="49.68755" lon="3.08725">
        <ele>92.04</ele>
        <time>2013-12-15T10:38:27Z</time>
      </trkpt>
      <trkpt lat="49.68795" lon="3.08697">
        <ele>92.2</ele>
        <time>2013-12-15T10:38:32Z</time>
      </trkpt>
      <trkpt lat="49.68831" lon="3.0867">
        <ele>92.04</ele>
        <time>2013-12-15T10:38:37Z</time>
      </trkpt>
      <trkpt lat="49.68858" lon="3.08647">
        <ele>91.77</ele>
        <time>2013-12-15T10:38:41Z</time>
      </trkpt>
      <trkpt lat="49.68883" lon="3.08619">
        <ele>91.42</ele>
        <time>2013-12-15T10:38:45Z</time>
      </trkpt>
      <trkpt lat="49.6891" lon="3.08582">
        <ele>90.98</ele>
        <time>2013-12-15T10:38:50Z</time>
      </trkpt>
      <trkpt lat="49.68928" lon="3.08551">
        <ele>90.61</ele>
        <time>2013-12-15T10:38:54Z</time>
      </trkpt>
      <trkpt lat="49.68953" lon="3.08511">
        <ele>90.13</ele>
        <time>2013-12-15T10:38:59Z</time>
      </trkpt>
      <trkpt lat="49.68974" lon="3.0848">
        <ele>90</ele>
        <time>2013-12-15T10:39:03Z</time>
      </trkpt>
      <trkpt lat="49.68999" lon="3.08441">
        <ele>90</ele>
        <time>2013-12-15T10:39:08Z</time>
      </trkpt>
      <trkpt lat="49.69019" lon="3.08412">
        <ele>89.99</ele>
        <time>2013-12-15T10:39:12Z</time>
      </trkpt>
      <trkpt lat="49.69043" lon="3.08375">
        <ele>89.75</ele>
        <time>2013-12-15T10:39:17Z</time>
      </trkpt>
      <trkpt lat="49.69062" lon="3.08335">
        <ele>89.26</ele>
        <time>2013-12-15T10:39:22Z</time>
      </trkpt>
      <trkpt lat="49.69079" lon="3.08288">
        <ele>89.03</ele>
        <time>2013-12-15T10:39:27Z</time>
      </trkpt>
      <trkpt lat="49.69096" lon="3.08242">
        <ele>89.15</ele>
        <time>2013-12-15T10:39:32Z</time>
      </trkpt>
      <trkpt lat="49.6911" lon="3.08204">
        <ele>89.32</ele>
        <time>2013-12-15T10:39:36Z</time>
      </trkpt>
      <trkpt lat="49.69127" lon="3.08153">
        <ele>89.51</ele>
        <time>2013-12-15T10:39:41Z</time>
      </trkpt>
      <trkpt lat="49.6914" lon="3.08111">
        <ele>89.44</ele>
        <time>2013-12-15T10:39:45Z</time>
      </trkpt>
      <trkpt lat="49.69157" lon="3.08057">
        <ele>89.12</ele>
        <time>2013-12-15T10:39:50Z</time>
      </trkpt>
      <trkpt lat="49.69175" lon="3.08004">
        <ele>88.9</ele>
        <time>2013-12-15T10:39:55Z</time>
      </trkpt>
      <trkpt lat="49.69189" lon="3.07959">
        <ele>88.5</ele>
        <time>2013-12-15T10:39:59Z</time>
      </trkpt>
      <trkpt lat="49.69204" lon="3.07914">
        <ele>88.46</ele>
        <time>2013-12-15T10:40:03Z</time>
      </trkpt>
      <trkpt lat="49.69239" lon="3.07891">
        <ele>89.15</ele>
        <time>2013-12-15T10:40:08Z</time>
      </trkpt>
      <trkpt lat="49.69273" lon="3.07885">
        <ele>88.94</ele>
        <time>2013-12-15T10:40:12Z</time>
      </trkpt>
      <trkpt lat="49.69307" lon="3.07847">
        <ele>89.04</ele>
        <time>2013-12-15T10:40:17Z</time>
      </trkpt>
      <trkpt lat="49.69335" lon="3.07819">
        <ele>88.92</ele>
        <time>2013-12-15T10:40:21Z</time>
      </trkpt>
      <trkpt lat="49.69374" lon="3.07803">
        <ele>86.75</ele>
        <time>2013-12-15T10:40:26Z</time>
      </trkpt>
      <trkpt lat="49.69408" lon="3.07807">
        <ele>84.78</ele>
        <time>2013-12-15T10:40:30Z</time>
      </trkpt>
      <trkpt lat="49.69452" lon="3.07813">
        <ele>83.5</ele>
        <time>2013-12-15T10:40:35Z</time>
      </trkpt>
      <trkpt lat="49.69487" lon="3.07819">
        <ele>82.64</ele>
        <time>2013-12-15T10:40:39Z</time>
      </trkpt>
      <trkpt lat="49.69525" lon="3.07842">
        <ele>81.7</ele>
        <time>2013-12-15T10:40:44Z</time>
      </trkpt>
      <trkpt lat="49.69553" lon="3.07867">
        <ele>81.36</ele>
        <time>2013-12-15T10:40:48Z</time>
      </trkpt>
      <trkpt lat="49.6959" lon="3.07894">
        <ele>80.84</ele>
        <time>2013-12-15T10:40:53Z</time>
      </trkpt>
      <trkpt lat="49.69617" lon="3.07919">
        <ele>80.18</ele>
        <time>2013-12-15T10:40:57Z</time>
      </trkpt>
      <trkpt lat="49.69654" lon="3.07911">
        <ele>79.3</ele>
        <time>2013-12-15T10:41:02Z</time>
      </trkpt>
      <trkpt lat="49.69681" lon="3.07886">
        <ele>78.59</ele>
        <time>2013-12-15T10:41:06Z</time>
      </trkpt>
      <trkpt lat="49.69718" lon="3.07853">
        <ele>77.3</ele>
        <time>2013-12-15T10:41:11Z</time>
      </trkpt>
      <trkpt lat="49.69751" lon="3.07825">
        <ele>75.75</ele>
        <time>2013-12-15T10:41:15Z</time>
      </trkpt>
      <trkpt lat="49.69796" lon="3.07787">
        <ele>73.55</ele>
        <time>2013-12-15T10:41:20Z</time>
      </trkpt>
      <trkpt lat="49.69831" lon="3.07756">
        <ele>72.14</ele>
        <time>2013-12-15T10:41:24Z</time>
      </trkpt>
      <trkpt lat="49.69873" lon="3.07719">
        <ele>71.43</ele>
        <time>2013-12-15T10:41:29Z</time>
      </trkpt>
      <trkpt lat="49.69908" lon="3.0769">
        <ele>70.93</ele>
        <time>2013-12-15T10:41:33Z</time>
      </trkpt>
      <trkpt lat="49.69953" lon="3.07659">
        <ele>70.6</ele>
        <time>2013-12-15T10:41:38Z</time>
      </trkpt>
      <trkpt lat="49.69997" lon="3.0763">
        <ele>70.46</ele>
        <time>2013-12-15T10:41:43Z</time>
      </trkpt>
      <trkpt lat="49.7003" lon="3.07607">
        <ele>70.97</ele>
        <time>2013-12-15T10:41:47Z</time>
      </trkpt>
      <trkpt lat="49.70068" lon="3.07581">
        <ele>71.83</ele>
        <time>2013-12-15T10:41:52Z</time>
      </trkpt>
      <trkpt lat="49.70096" lon="3.0756">
        <ele>71.74</ele>
        <time>2013-12-15T10:41:56Z</time>
      </trkpt>
      <trkpt lat="49.70131" lon="3.07532">
        <ele>71.21</ele>
        <time>2013-12-15T10:42:01Z</time>
      </trkpt>
      <trkpt lat="49.70152" lon="3.07503">
        <ele>71.15</ele>
        <time>2013-12-15T10:42:05Z</time>
      </trkpt>
      <trkpt lat="49.70162" lon="3.07464">
        <ele>71.05</ele>
        <time>2013-12-15T10:42:09Z</time>
      </trkpt>
      <trkpt lat="49.70187" lon="3.07427">
        <ele>70.75</ele>
        <time>2013-12-15T10:42:14Z</time>
      </trkpt>
      <trkpt lat="49.70216" lon="3.07403">
        <ele>70.41</ele>
        <time>2013-12-15T10:42:19Z</time>
      </trkpt>
      <trkpt lat="49.70236" lon="3.07386">
        <ele>70.17</ele>
        <time>2013-12-15T10:42:23Z</time>
      </trkpt>
      <trkpt lat="49.70262" lon="3.07363">
        <ele>69.72</ele>
        <time>2013-12-15T10:42:28Z</time>
      </trkpt>
      <trkpt lat="49.70284" lon="3.07339">
        <ele>69.18</ele>
        <time>2013-12-15T10:42:33Z</time>
      </trkpt>
      <trkpt lat="49.70309" lon="3.07313">
        <ele>68.34</ele>
        <time>2013-12-15T10:42:38Z</time>
      </trkpt>
      <trkpt lat="49.70333" lon="3.0729">
        <ele>67.48</ele>
        <time>2013-12-15T10:42:43Z</time>
      </trkpt>
      <trkpt lat="49.70353" lon="3.07273">
        <ele>67.21</ele>
        <time>2013-12-15T10:42:47Z</time>
      </trkpt>
      <trkpt lat="49.70371" lon="3.07257">
        <ele>67.05</ele>
        <time>2013-12-15T10:42:51Z</time>
      </trkpt>
      <trkpt lat="49.70392" lon="3.07239">
        <ele>67.09</ele>
        <time>2013-12-15T10:42:56Z</time>
      </trkpt>
      <trkpt lat="49.70412" lon="3.07223">
        <ele>67.31</ele>
        <time>2013-12-15T10:43:01Z</time>
      </trkpt>
      <trkpt lat="49.7044" lon="3.07199">
        <ele>67.28</ele>
        <time>2013-12-15T10:43:09Z</time>
      </trkpt>
      <trkpt lat="49.70463" lon="3.07174">
        <ele>66.89</ele>
        <time>2013-12-15T10:43:18Z</time>
      </trkpt>
      <trkpt lat="49.70491" lon="3.07159">
        <ele>66.29</ele>
        <time>2013-12-15T10:43:28Z</time>
      </trkpt>
      <trkpt lat="49.70525" lon="3.07142">
        <ele>66.6</ele>
        <time>2013-12-15T10:43:38Z</time>
      </trkpt>
      <trkpt lat="49.70556" lon="3.07125">
        <ele>67.17</ele>
        <time>2013-12-15T10:43:47Z</time>
      </trkpt>
      <trkpt lat="49.70586" lon="3.07107">
        <ele>67.69</ele>
        <time>2013-12-15T10:43:56Z</time>
      </trkpt>
      <trkpt lat="49.70614" lon="3.0709">
        <ele>67.58</ele>
        <time>2013-12-15T10:44:05Z</time>
      </trkpt>
      <trkpt lat="49.70643" lon="3.07077">
        <ele>67.21</ele>
        <time>2013-12-15T10:44:14Z</time>
      </trkpt>
      <trkpt lat="49.70673" lon="3.0706">
        <ele>66.74</ele>
        <time>2013-12-15T10:44:23Z</time>
      </trkpt>
      <trkpt lat="49.70703" lon="3.07041">
        <ele>66.71</ele>
        <time>2013-12-15T10:44:32Z</time>
      </trkpt>
      <trkpt lat="49.70723" lon="3.07022">
        <ele>66.76</ele>
        <time>2013-12-15T10:44:41Z</time>
      </trkpt>
      <trkpt lat="49.70728" lon="3.06989">
        <ele>66.73</ele>
        <time>2013-12-15T10:45:27Z</time>
      </trkpt>
      <trkpt lat="49.70734" lon="3.0696">
        <ele>66.8</ele>
        <time>2013-12-15T10:45:32Z</time>
      </trkpt>
      <trkpt lat="49.70736" lon="3.06925">
        <ele>66.83</ele>
        <time>2013-12-15T10:45:37Z</time>
      </trkpt>
      <trkpt lat="49.70736" lon="3.06896">
        <ele>66.67</ele>
        <time>2013-12-15T10:45:41Z</time>
      </trkpt>
      <trkpt lat="49.70734" lon="3.06868">
        <ele>66.45</ele>
        <time>2013-12-15T10:45:45Z</time>
      </trkpt>
      <trkpt lat="49.70734" lon="3.06836">
        <ele>66.21</ele>
        <time>2013-12-15T10:45:50Z</time>
      </trkpt>
      <trkpt lat="49.70733" lon="3.06774">
        <ele>66.2</ele>
        <time>2013-12-15T10:45:59Z</time>
      </trkpt>
      <trkpt lat="49.70744" lon="3.06718">
        <ele>66.08</ele>
        <time>2013-12-15T10:46:08Z</time>
      </trkpt>
      <trkpt lat="49.70754" lon="3.06662">
        <ele>65.96</ele>
        <time>2013-12-15T10:46:16Z</time>
      </trkpt>
      <trkpt lat="49.70759" lon="3.06627">
        <ele>65.94</ele>
        <time>2013-12-15T10:46:21Z</time>
      </trkpt>
      <trkpt lat="49.70764" lon="3.06596">
        <ele>65.97</ele>
        <time>2013-12-15T10:46:26Z</time>
      </trkpt>
      <trkpt lat="49.70772" lon="3.0657">
        <ele>66</ele>
        <time>2013-12-15T10:46:30Z</time>
      </trkpt>
      <trkpt lat="49.70778" lon="3.06541">
        <ele>66</ele>
        <time>2013-12-15T10:46:35Z</time>
      </trkpt>
      <trkpt lat="49.70787" lon="3.06493">
        <ele>66</ele>
        <time>2013-12-15T10:46:44Z</time>
      </trkpt>
      <trkpt lat="49.70794" lon="3.06451">
        <ele>66</ele>
        <time>2013-12-15T10:46:53Z</time>
      </trkpt>
      <trkpt lat="49.70814" lon="3.06442">
        <ele>66</ele>
        <time>2013-12-15T10:47:02Z</time>
      </trkpt>
      <trkpt lat="49.70848" lon="3.06456">
        <ele>65.82</ele>
        <time>2013-12-15T10:47:11Z</time>
      </trkpt>
      <trkpt lat="49.70868" lon="3.06461">
        <ele>65.62</ele>
        <time>2013-12-15T10:47:15Z</time>
      </trkpt>
      <trkpt lat="49.70895" lon="3.06468">
        <ele>65.44</ele>
        <time>2013-12-15T10:47:20Z</time>
      </trkpt>
      <trkpt lat="49.70922" lon="3.06473">
        <ele>65.39</ele>
        <time>2013-12-15T10:47:25Z</time>
      </trkpt>
      <trkpt lat="49.7094" lon="3.06474">
        <ele>65.55</ele>
        <time>2013-12-15T10:47:29Z</time>
      </trkpt>
      <trkpt lat="49.7096" lon="3.06476">
        <ele>65.72</ele>
        <time>2013-12-15T10:47:33Z</time>
      </trkpt>
      <trkpt lat="49.70986" lon="3.06481">
        <ele>65.92</ele>
        <time>2013-12-15T10:47:38Z</time>
      </trkpt>
      <trkpt lat="49.71005" lon="3.06483">
        <ele>65.87</ele>
        <time>2013-12-15T10:47:42Z</time>
      </trkpt>
      <trkpt lat="49.7103" lon="3.0649">
        <ele>65.28</ele>
        <time>2013-12-15T10:47:47Z</time>
      </trkpt>
      <trkpt lat="49.71053" lon="3.06495">
        <ele>64.73</ele>
        <time>2013-12-15T10:47:51Z</time>
      </trkpt>
      <trkpt lat="49.71083" lon="3.06497">
        <ele>64.02</ele>
        <time>2013-12-15T10:47:56Z</time>
      </trkpt>
      <trkpt lat="49.71106" lon="3.06499">
        <ele>63.73</ele>
        <time>2013-12-15T10:48:00Z</time>
      </trkpt>
      <trkpt lat="49.71134" lon="3.06501">
        <ele>63.39</ele>
        <time>2013-12-15T10:48:05Z</time>
      </trkpt>
      <trkpt lat="49.71155" lon="3.06504">
        <ele>63.13</ele>
        <time>2013-12-15T10:48:09Z</time>
      </trkpt>
      <trkpt lat="49.71183" lon="3.06507">
        <ele>62.82</ele>
        <time>2013-12-15T10:48:14Z</time>
      </trkpt>
      <trkpt lat="49.71206" lon="3.06511">
        <ele>62.59</ele>
        <time>2013-12-15T10:48:18Z</time>
      </trkpt>
      <trkpt lat="49.71234" lon="3.06515">
        <ele>62.34</ele>
        <time>2013-12-15T10:48:23Z</time>
      </trkpt>
      <trkpt lat="49.71258" lon="3.06517">
        <ele>62.24</ele>
        <time>2013-12-15T10:48:27Z</time>
      </trkpt>
      <trkpt lat="49.71289" lon="3.06521">
        <ele>62.49</ele>
        <time>2013-12-15T10:48:32Z</time>
      </trkpt>
      <trkpt lat="49.71314" lon="3.06525">
        <ele>62.75</ele>
        <time>2013-12-15T10:48:36Z</time>
      </trkpt>
      <trkpt lat="49.71346" lon="3.06534">
        <ele>63.3</ele>
        <time>2013-12-15T10:48:41Z</time>
      </trkpt>
      <trkpt lat="49.71375" lon="3.06538">
        <ele>63.63</ele>
        <time>2013-12-15T10:48:45Z</time>
      </trkpt>
      <trkpt lat="49.71412" lon="3.0654">
        <ele>63.94</ele>
        <time>2013-12-15T10:48:50Z</time>
      </trkpt>
      <trkpt lat="49.71441" lon="3.06542">
        <ele>63.86</ele>
        <time>2013-12-15T10:48:54Z</time>
      </trkpt>
      <trkpt lat="49.71479" lon="3.06547">
        <ele>63.71</ele>
        <time>2013-12-15T10:48:59Z</time>
      </trkpt>
      <trkpt lat="49.71519" lon="3.06555">
        <ele>63.66</ele>
        <time>2013-12-15T10:49:04Z</time>
      </trkpt>
      <trkpt lat="49.71552" lon="3.06562">
        <ele>63.74</ele>
        <time>2013-12-15T10:49:08Z</time>
      </trkpt>
      <trkpt lat="49.71592" lon="3.06567">
        <ele>63.87</ele>
        <time>2013-12-15T10:49:13Z</time>
      </trkpt>
      <trkpt lat="49.71625" lon="3.06572">
        <ele>64.22</ele>
        <time>2013-12-15T10:49:17Z</time>
      </trkpt>
      <trkpt lat="49.71666" lon="3.06578">
        <ele>64.79</ele>
        <time>2013-12-15T10:49:22Z</time>
      </trkpt>
      <trkpt lat="49.71699" lon="3.06581">
        <ele>64.9</ele>
        <time>2013-12-15T10:49:26Z</time>
      </trkpt>
      <trkpt lat="49.7174" lon="3.06585">
        <ele>64.98</ele>
        <time>2013-12-15T10:49:31Z</time>
      </trkpt>
      <trkpt lat="49.71774" lon="3.06589">
        <ele>65.22</ele>
        <time>2013-12-15T10:49:35Z</time>
      </trkpt>
      <trkpt lat="49.71816" lon="3.06594">
        <ele>65.66</ele>
        <time>2013-12-15T10:49:40Z</time>
      </trkpt>
      <trkpt lat="49.71849" lon="3.06599">
        <ele>65.81</ele>
        <time>2013-12-15T10:49:44Z</time>
      </trkpt>
      <trkpt lat="49.71891" lon="3.06604">
        <ele>65.75</ele>
        <time>2013-12-15T10:49:49Z</time>
      </trkpt>
      <trkpt lat="49.71922" lon="3.06611">
        <ele>65.61</ele>
        <time>2013-12-15T10:49:53Z</time>
      </trkpt>
      <trkpt lat="49.7196" lon="3.06617">
        <ele>65.08</ele>
        <time>2013-12-15T10:49:58Z</time>
      </trkpt>
      <trkpt lat="49.71991" lon="3.06622">
        <ele>64.64</ele>
        <time>2013-12-15T10:50:02Z</time>
      </trkpt>
      <trkpt lat="49.72031" lon="3.06625">
        <ele>64.31</ele>
        <time>2013-12-15T10:50:07Z</time>
      </trkpt>
      <trkpt lat="49.72063" lon="3.06629">
        <ele>64.11</ele>
        <time>2013-12-15T10:50:11Z</time>
      </trkpt>
      <trkpt lat="49.72103" lon="3.06635">
        <ele>63.76</ele>
        <time>2013-12-15T10:50:16Z</time>
      </trkpt>
      <trkpt lat="49.72136" lon="3.06638">
        <ele>63.37</ele>
        <time>2013-12-15T10:50:20Z</time>
      </trkpt>
      <trkpt lat="49.72177" lon="3.06642">
        <ele>63.13</ele>
        <time>2013-12-15T10:50:25Z</time>
      </trkpt>
      <trkpt lat="49.72209" lon="3.06646">
        <ele>63.63</ele>
        <time>2013-12-15T10:50:29Z</time>
      </trkpt>
      <trkpt lat="49.7225" lon="3.06651">
        <ele>64.43</ele>
        <time>2013-12-15T10:50:34Z</time>
      </trkpt>
      <trkpt lat="49.72288" lon="3.06655">
        <ele>64.72</ele>
        <time>2013-12-15T10:50:39Z</time>
      </trkpt>
      <trkpt lat="49.72325" lon="3.06659">
        <ele>64.88</ele>
        <time>2013-12-15T10:50:44Z</time>
      </trkpt>
      <trkpt lat="49.72363" lon="3.0666">
        <ele>64.89</ele>
        <time>2013-12-15T10:50:49Z</time>
      </trkpt>
      <trkpt lat="49.72392" lon="3.06658">
        <ele>64.83</ele>
        <time>2013-12-15T10:50:53Z</time>
      </trkpt>
      <trkpt lat="49.72423" lon="3.06661">
        <ele>64.94</ele>
        <time>2013-12-15T10:50:58Z</time>
      </trkpt>
      <trkpt lat="49.72451" lon="3.06659">
        <ele>65.22</ele>
        <time>2013-12-15T10:51:03Z</time>
      </trkpt>
    </trkseg>
  </trk>
</gpx>